<?xml version="1.0" encoding="UTF-8"?>
<gpx version="1.1" creator="Garmin Connect"
  xsi:schemaLocation="http://www.topografix.com/GPX/1/1 http://www.topografix.com/GPX/1/1/gpx.xsd http://www.garmin.com/xmlschemas/GpxExtensions/v3 http://www.garmin.com/xmlschemas/GpxExtensionsv3.xsd http://www.garmin.com/xmlschemas/TrackPointExtension/v1 http://www.garmin.com/xmlschemas/TrackPointExtensionv1.xsd"
  xmlns="http://www.topografix.com/GPX/1/1"
  xmlns:gpxtpx="http://www.garmin.com/xmlschemas/TrackPointExtension/v1"
  xmlns:gpxx="http://www.garmin.com/xmlschemas/GpxExtensions/v3" xmlns:xsi="http://www.w3.org/2001/XMLSchema-instance">
  <metadata>
    <link href="connect.garmin.com">
      <text>Garmin Connect</text>
    </link>
    <time>2011-05-06T04:43:13.000Z</time>
  </metadata>
  <trk>
    <name>khorashim forest</name>
    <trkseg>
      <trkpt lon="34.97287994250655" lat="32.151129925623536">
        <ele>57.400001525878906</ele>
        <time>2011-05-06T04:43:13.000Z</time>
      </trkpt>
      <trkpt lon="34.97287994250655" lat="32.151129925623536">
        <ele>57.400001525878906</ele>
        <time>2011-05-06T04:43:14.000Z</time>
      </trkpt>
      <trkpt lon="34.97287994250655" lat="32.151129925623536">
        <ele>57.400001525878906</ele>
        <time>2011-05-06T04:43:16.000Z</time>
      </trkpt>
      <trkpt lon="34.97286996804178" lat="32.15113998390734">
        <ele>57.599998474121094</ele>
        <time>2011-05-06T04:43:33.000Z</time>
      </trkpt>
      <trkpt lon="34.97287994250655" lat="32.15113998390734">
        <ele>57.599998474121094</ele>
        <time>2011-05-06T04:43:43.000Z</time>
      </trkpt>
      <trkpt lon="34.97287994250655" lat="32.15113998390734">
        <ele>57.599998474121094</ele>
        <time>2011-05-06T04:43:49.000Z</time>
      </trkpt>
      <trkpt lon="34.97286996804178" lat="32.15113998390734">
        <ele>57.599998474121094</ele>
        <time>2011-05-06T04:44:00.000Z</time>
      </trkpt>
      <trkpt lon="34.97286996804178" lat="32.15113998390734">
        <ele>57.599998474121094</ele>
        <time>2011-05-06T04:44:02.000Z</time>
      </trkpt>
      <trkpt lon="34.97286996804178" lat="32.15113998390734">
        <ele>57.599998474121094</ele>
        <time>2011-05-06T04:44:07.000Z</time>
      </trkpt>
      <trkpt lon="34.97286996804178" lat="32.15113998390734">
        <ele>57.599998474121094</ele>
        <time>2011-05-06T04:44:08.000Z</time>
      </trkpt>
      <trkpt lon="34.97286996804178" lat="32.15113998390734">
        <ele>57.599998474121094</ele>
        <time>2011-05-06T04:44:10.000Z</time>
      </trkpt>
      <trkpt lon="34.97286996804178" lat="32.15113998390734">
        <ele>57.599998474121094</ele>
        <time>2011-05-06T04:44:11.000Z</time>
      </trkpt>
      <trkpt lon="34.97286996804178" lat="32.15113998390734">
        <ele>57.599998474121094</ele>
        <time>2011-05-06T04:44:12.000Z</time>
      </trkpt>
      <trkpt lon="34.97286996804178" lat="32.15113998390734">
        <ele>57.599998474121094</ele>
        <time>2011-05-06T04:44:13.000Z</time>
      </trkpt>
      <trkpt lon="34.97286996804178" lat="32.151149958372116">
        <ele>57.599998474121094</ele>
        <time>2011-05-06T04:44:26.000Z</time>
      </trkpt>
      <trkpt lon="34.972859993577" lat="32.15113998390734">
        <ele>57.599998474121094</ele>
        <time>2011-05-06T04:44:53.000Z</time>
      </trkpt>
      <trkpt lon="34.972859993577" lat="32.151129925623536">
        <ele>57.400001525878906</ele>
        <time>2011-05-06T04:45:15.000Z</time>
      </trkpt>
      <trkpt lon="34.97275999747217" lat="32.15108994394541">
        <ele>57.400001525878906</ele>
        <time>2011-05-06T04:45:30.000Z</time>
      </trkpt>
      <trkpt lon="34.97275999747217" lat="32.15108994394541">
        <ele>57.400001525878906</ele>
        <time>2011-05-06T04:45:35.000Z</time>
      </trkpt>
      <trkpt lon="34.97275999747217" lat="32.15108994394541">
        <ele>57.400001525878906</ele>
        <time>2011-05-06T04:46:11.000Z</time>
      </trkpt>
      <trkpt lon="34.97273996472359" lat="32.151079969480634">
        <ele>57.400001525878906</ele>
        <time>2011-05-06T04:46:57.000Z</time>
      </trkpt>
      <trkpt lon="34.97272999025881" lat="32.15106999501586">
        <ele>57.400001525878906</ele>
        <time>2011-05-06T04:47:15.000Z</time>
      </trkpt>
      <trkpt lon="34.97271993197501" lat="32.15106999501586">
        <ele>57.400001525878906</ele>
        <time>2011-05-06T04:47:23.000Z</time>
      </trkpt>
      <trkpt lon="34.97271993197501" lat="32.15106999501586">
        <ele>57.400001525878906</ele>
        <time>2011-05-06T04:47:25.000Z</time>
      </trkpt>
      <trkpt lon="34.97271993197501" lat="32.15106999501586">
        <ele>57.400001525878906</ele>
        <time>2011-05-06T04:47:26.000Z</time>
      </trkpt>
      <trkpt lon="34.97273996472359" lat="32.15106999501586">
        <ele>57.400001525878906</ele>
        <time>2011-05-06T04:47:45.000Z</time>
      </trkpt>
      <trkpt lon="34.97274993918836" lat="32.151079969480634">
        <ele>57.400001525878906</ele>
        <time>2011-05-06T04:48:13.000Z</time>
      </trkpt>
      <trkpt lon="34.97273996472359" lat="32.151079969480634">
        <ele>57.400001525878906</ele>
        <time>2011-05-06T04:48:32.000Z</time>
      </trkpt>
      <trkpt lon="34.97273996472359" lat="32.151079969480634">
        <ele>57.400001525878906</ele>
        <time>2011-05-06T04:48:33.000Z</time>
      </trkpt>
      <trkpt lon="34.97273996472359" lat="32.151079969480634">
        <ele>57.400001525878906</ele>
        <time>2011-05-06T04:48:36.000Z</time>
      </trkpt>
      <trkpt lon="34.97271993197501" lat="32.151079969480634">
        <ele>57.400001525878906</ele>
        <time>2011-05-06T04:48:38.000Z</time>
      </trkpt>
      <trkpt lon="34.97255992144346" lat="32.15100998058915">
        <ele>57.20000076293945</ele>
        <time>2011-05-06T04:48:54.000Z</time>
      </trkpt>
      <trkpt lon="34.972479958087206" lat="32.1509799733758">
        <ele>57.20000076293945</ele>
        <time>2011-05-06T04:49:03.000Z</time>
      </trkpt>
      <trkpt lon="34.97227996587753" lat="32.15092993341386">
        <ele>57.0</ele>
        <time>2011-05-06T04:49:22.000Z</time>
      </trkpt>
      <trkpt lon="34.97227996587753" lat="32.15092993341386">
        <ele>57.0</ele>
        <time>2011-05-06T04:49:23.000Z</time>
      </trkpt>
      <trkpt lon="34.97227996587753" lat="32.15092993341386">
        <ele>57.0</ele>
        <time>2011-05-06T04:49:46.000Z</time>
      </trkpt>
      <trkpt lon="34.97227996587753" lat="32.15092993341386">
        <ele>57.0</ele>
        <time>2011-05-06T04:50:05.000Z</time>
      </trkpt>
      <trkpt lon="34.97226999141276" lat="32.15091995894909">
        <ele>57.0</ele>
        <time>2011-05-06T04:50:55.000Z</time>
      </trkpt>
      <trkpt lon="34.972239984199405" lat="32.150909984484315">
        <ele>56.79999923706055</ele>
        <time>2011-05-06T04:51:17.000Z</time>
      </trkpt>
      <trkpt lon="34.97214996255934" lat="32.150869918987155">
        <ele>56.599998474121094</ele>
        <time>2011-05-06T04:51:22.000Z</time>
      </trkpt>
      <trkpt lon="34.97168996371329" lat="32.1507899556309">
        <ele>56.599998474121094</ele>
        <time>2011-05-06T04:51:38.000Z</time>
      </trkpt>
      <trkpt lon="34.97147999703884" lat="32.150719966739416">
        <ele>55.79999923706055</ele>
        <time>2011-05-06T04:51:47.000Z</time>
      </trkpt>
      <trkpt lon="34.97151997871697" lat="32.15029994957149">
        <ele>53.0</ele>
        <time>2011-05-06T04:52:01.000Z</time>
      </trkpt>
      <trkpt lon="34.97145996429026" lat="32.14964993298054">
        <ele>50.599998474121094</ele>
        <time>2011-05-06T04:52:14.000Z</time>
      </trkpt>
      <trkpt lon="34.97119995765388" lat="32.14898994192481">
        <ele>49.599998474121094</ele>
        <time>2011-05-06T04:52:29.000Z</time>
      </trkpt>
      <trkpt lon="34.97123993933201" lat="32.148569924756885">
        <ele>48.79999923706055</ele>
        <time>2011-05-06T04:52:42.000Z</time>
      </trkpt>
      <trkpt lon="34.97143993154168" lat="32.14824998751283">
        <ele>48.79999923706055</ele>
        <time>2011-05-06T04:52:54.000Z</time>
      </trkpt>
      <trkpt lon="34.971249997615814" lat="32.1480699442327">
        <ele>47.79999923706055</ele>
        <time>2011-05-06T04:53:01.000Z</time>
      </trkpt>
      <trkpt lon="34.97055999934673" lat="32.14773994870484">
        <ele>45.79999923706055</ele>
        <time>2011-05-06T04:53:16.000Z</time>
      </trkpt>
      <trkpt lon="34.97039998881519" lat="32.147539956495166">
        <ele>45.400001525878906</ele>
        <time>2011-05-06T04:53:22.000Z</time>
      </trkpt>
      <trkpt lon="34.97038993053138" lat="32.14732998982072">
        <ele>46.20000076293945</ele>
        <time>2011-05-06T04:53:28.000Z</time>
      </trkpt>
      <trkpt lon="34.97022991999984" lat="32.146869990974665">
        <ele>48.599998474121094</ele>
        <time>2011-05-06T04:53:45.000Z</time>
      </trkpt>
      <trkpt lon="34.97008994221687" lat="32.14663999155164">
        <ele>50.79999923706055</ele>
        <time>2011-05-06T04:53:58.000Z</time>
      </trkpt>
      <trkpt lon="34.97000997886062" lat="32.146589951589704">
        <ele>51.599998474121094</ele>
        <time>2011-05-06T04:54:00.000Z</time>
      </trkpt>
      <trkpt lon="34.96982993558049" lat="32.14647998102009">
        <ele>53.0</ele>
        <time>2011-05-06T04:54:08.000Z</time>
      </trkpt>
      <trkpt lon="34.96979992836714" lat="32.14647998102009">
        <ele>53.20000076293945</ele>
        <time>2011-05-06T04:54:11.000Z</time>
      </trkpt>
      <trkpt lon="34.969769921153784" lat="32.14635995216668">
        <ele>54.400001525878906</ele>
        <time>2011-05-06T04:54:17.000Z</time>
      </trkpt>
      <trkpt lon="34.969749972224236" lat="32.146309996023774">
        <ele>55.0</ele>
        <time>2011-05-06T04:54:20.000Z</time>
      </trkpt>
      <trkpt lon="34.969729939475656" lat="32.14623992331326">
        <ele>55.599998474121094</ele>
        <time>2011-05-06T04:54:23.000Z</time>
      </trkpt>
      <trkpt lon="34.969729939475656" lat="32.14620999991894">
        <ele>56.0</ele>
        <time>2011-05-06T04:54:25.000Z</time>
      </trkpt>
      <trkpt lon="34.9696999322623" lat="32.146179992705584">
        <ele>56.400001525878906</ele>
        <time>2011-05-06T04:54:30.000Z</time>
      </trkpt>
      <trkpt lon="34.96963991783559" lat="32.145989974960685">
        <ele>58.20000076293945</ele>
        <time>2011-05-06T04:54:38.000Z</time>
      </trkpt>
      <trkpt lon="34.96970999054611" lat="32.14569996111095">
        <ele>60.20000076293945</ele>
        <time>2011-05-06T04:54:50.000Z</time>
      </trkpt>
      <trkpt lon="34.969769921153784" lat="32.14556995779276">
        <ele>60.400001525878906</ele>
        <time>2011-05-06T04:54:56.000Z</time>
      </trkpt>
      <trkpt lon="34.96977997943759" lat="32.14530995115638">
        <ele>61.20000076293945</ele>
        <time>2011-05-06T04:55:08.000Z</time>
      </trkpt>
      <trkpt lon="34.9698399938643" lat="32.144999988377094">
        <ele>62.20000076293945</ele>
        <time>2011-05-06T04:55:23.000Z</time>
      </trkpt>
      <trkpt lon="34.96986991725862" lat="32.14473998174071">
        <ele>62.79999923706055</ele>
        <time>2011-05-06T04:55:35.000Z</time>
      </trkpt>
      <trkpt lon="34.969859942793846" lat="32.14444996789098">
        <ele>63.400001525878906</ele>
        <time>2011-05-06T04:55:46.000Z</time>
      </trkpt>
      <trkpt lon="34.9698899500072" lat="32.14436992071569">
        <ele>63.79999923706055</ele>
        <time>2011-05-06T04:55:50.000Z</time>
      </trkpt>
      <trkpt lon="34.970159931108356" lat="32.14434997178614">
        <ele>63.0</ele>
        <time>2011-05-06T04:56:01.000Z</time>
      </trkpt>
      <trkpt lon="34.970329999923706" lat="32.14434997178614">
        <ele>61.599998474121094</ele>
        <time>2011-05-06T04:56:09.000Z</time>
      </trkpt>
      <trkpt lon="34.97035992331803" lat="32.14425995014608">
        <ele>61.79999923706055</ele>
        <time>2011-05-06T04:56:13.000Z</time>
      </trkpt>
      <trkpt lon="34.97046997770667" lat="32.143989969044924">
        <ele>62.0</ele>
        <time>2011-05-06T04:56:26.000Z</time>
      </trkpt>
      <trkpt lon="34.970499984920025" lat="32.14397999458015">
        <ele>62.0</ele>
        <time>2011-05-06T04:56:27.000Z</time>
      </trkpt>
      <trkpt lon="34.97055999934673" lat="32.14387999847531">
        <ele>62.0</ele>
        <time>2011-05-06T04:56:32.000Z</time>
      </trkpt>
      <trkpt lon="34.97054994106293" lat="32.14345998130739">
        <ele>63.400001525878906</ele>
        <time>2011-05-06T04:56:46.000Z</time>
      </trkpt>
      <trkpt lon="34.97052999213338" lat="32.14326996356249">
        <ele>64.5999984741211</ele>
        <time>2011-05-06T04:56:56.000Z</time>
      </trkpt>
      <trkpt lon="34.97052999213338" lat="32.14307994581759">
        <ele>66.19999694824219</ele>
        <time>2011-05-06T04:57:04.000Z</time>
      </trkpt>
      <trkpt lon="34.970609955489635" lat="32.14299998246133">
        <ele>66.5999984741211</ele>
        <time>2011-05-06T04:57:09.000Z</time>
      </trkpt>
      <trkpt lon="34.97065999545157" lat="32.14296997524798">
        <ele>66.80000305175781</ele>
        <time>2011-05-06T04:57:11.000Z</time>
      </trkpt>
      <trkpt lon="34.97085998766124" lat="32.14281993918121">
        <ele>67.4000015258789</ele>
        <time>2011-05-06T04:57:20.000Z</time>
      </trkpt>
      <trkpt lon="34.97106995433569" lat="32.14256999082863">
        <ele>67.0</ele>
        <time>2011-05-06T04:57:33.000Z</time>
      </trkpt>
      <trkpt lon="34.97126994654536" lat="32.14243998751044">
        <ele>65.80000305175781</ele>
        <time>2011-05-06T04:57:42.000Z</time>
      </trkpt>
      <trkpt lon="34.971339935436845" lat="32.142379973083735">
        <ele>65.80000305175781</ele>
        <time>2011-05-06T04:57:45.000Z</time>
      </trkpt>
      <trkpt lon="34.97153992764652" lat="32.142229937016964">
        <ele>66.0</ele>
        <time>2011-05-06T04:57:54.000Z</time>
      </trkpt>
      <trkpt lon="34.97164998203516" lat="32.142169922590256">
        <ele>66.0</ele>
        <time>2011-05-06T04:57:58.000Z</time>
      </trkpt>
      <trkpt lon="34.971769927069545" lat="32.14212994091213">
        <ele>65.4000015258789</ele>
        <time>2011-05-06T04:58:02.000Z</time>
      </trkpt>
      <trkpt lon="34.97183999978006" lat="32.14206992648542">
        <ele>65.5999984741211</ele>
        <time>2011-05-06T04:58:06.000Z</time>
      </trkpt>
      <trkpt lon="34.97201995924115" lat="32.1418999414891">
        <ele>66.4000015258789</ele>
        <time>2011-05-06T04:58:18.000Z</time>
      </trkpt>
      <trkpt lon="34.972029933705926" lat="32.14187999255955">
        <ele>66.5999984741211</ele>
        <time>2011-05-06T04:58:19.000Z</time>
      </trkpt>
      <trkpt lon="34.97211995534599" lat="32.1416599676013">
        <ele>69.0</ele>
        <time>2011-05-06T04:58:30.000Z</time>
      </trkpt>
      <trkpt lon="34.97229999862611" lat="32.14139996096492">
        <ele>70.4000015258789</ele>
        <time>2011-05-06T04:58:43.000Z</time>
      </trkpt>
      <trkpt lon="34.97242991812527" lat="32.14124992489815">
        <ele>71.4000015258789</ele>
        <time>2011-05-06T04:58:51.000Z</time>
      </trkpt>
      <trkpt lon="34.9724199436605" lat="32.14114992879331">
        <ele>73.19999694824219</ele>
        <time>2011-05-06T04:59:02.000Z</time>
      </trkpt>
      <trkpt lon="34.9724199436605" lat="32.14114992879331">
        <ele>73.19999694824219</ele>
        <time>2011-05-06T04:59:14.000Z</time>
      </trkpt>
      <trkpt lon="34.9724199436605" lat="32.14113995432854">
        <ele>73.4000015258789</ele>
        <time>2011-05-06T04:59:15.000Z</time>
      </trkpt>
      <trkpt lon="34.97242991812527" lat="32.14113995432854">
        <ele>73.19999694824219</ele>
        <time>2011-05-06T04:59:16.000Z</time>
      </trkpt>
      <trkpt lon="34.97242991812527" lat="32.14112997986376">
        <ele>73.4000015258789</ele>
        <time>2011-05-06T04:59:17.000Z</time>
      </trkpt>
      <trkpt lon="34.97244995087385" lat="32.141049932688475">
        <ele>74.5999984741211</ele>
        <time>2011-05-06T04:59:28.000Z</time>
      </trkpt>
      <trkpt lon="34.97256997972727" lat="32.140899980440736">
        <ele>76.19999694824219</ele>
        <time>2011-05-06T04:59:38.000Z</time>
      </trkpt>
      <trkpt lon="34.97263996861875" lat="32.14078992605209">
        <ele>77.0</ele>
        <time>2011-05-06T04:59:48.000Z</time>
      </trkpt>
      <trkpt lon="34.97263996861875" lat="32.14078992605209">
        <ele>77.0</ele>
        <time>2011-05-06T04:59:50.000Z</time>
      </trkpt>
      <trkpt lon="34.972649943083525" lat="32.140749944373965">
        <ele>77.19999694824219</ele>
        <time>2011-05-06T05:00:02.000Z</time>
      </trkpt>
      <trkpt lon="34.972669975832105" lat="32.14069998823106">
        <ele>77.19999694824219</ele>
        <time>2011-05-06T05:00:16.000Z</time>
      </trkpt>
      <trkpt lon="34.97276997193694" lat="32.14064994826913">
        <ele>76.80000305175781</ele>
        <time>2011-05-06T05:00:21.000Z</time>
      </trkpt>
      <trkpt lon="34.97308999300003" lat="32.14062999933958">
        <ele>74.80000305175781</ele>
        <time>2011-05-06T05:00:31.000Z</time>
      </trkpt>
      <trkpt lon="34.97336994856596" lat="32.14058993384242">
        <ele>72.80000305175781</ele>
        <time>2011-05-06T05:00:42.000Z</time>
      </trkpt>
      <trkpt lon="34.973399955779314" lat="32.14058993384242">
        <ele>72.4000015258789</ele>
        <time>2011-05-06T05:00:44.000Z</time>
      </trkpt>
      <trkpt lon="34.97343993745744" lat="32.14055992662907">
        <ele>72.0</ele>
        <time>2011-05-06T05:00:47.000Z</time>
      </trkpt>
      <trkpt lon="34.97349995188415" lat="32.14052991941571">
        <ele>71.4000015258789</ele>
        <time>2011-05-06T05:00:59.000Z</time>
      </trkpt>
      <trkpt lon="34.973509926348925" lat="32.14051994495094">
        <ele>71.4000015258789</ele>
        <time>2011-05-06T05:01:23.000Z</time>
      </trkpt>
      <trkpt lon="34.97362995520234" lat="32.14051994495094">
        <ele>69.80000305175781</ele>
        <time>2011-05-06T05:01:32.000Z</time>
      </trkpt>
      <trkpt lon="34.973899936303496" lat="32.14049999602139">
        <ele>66.19999694824219</ele>
        <time>2011-05-06T05:01:44.000Z</time>
      </trkpt>
      <trkpt lon="34.97407997958362" lat="32.140509970486164">
        <ele>63.599998474121094</ele>
        <time>2011-05-06T05:01:52.000Z</time>
      </trkpt>
      <trkpt lon="34.97412993572652" lat="32.14051994495094">
        <ele>63.0</ele>
        <time>2011-05-06T05:01:54.000Z</time>
      </trkpt>
      <trkpt lon="34.97437996789813" lat="32.14051994495094">
        <ele>61.599998474121094</ele>
        <time>2011-05-06T05:02:05.000Z</time>
      </trkpt>
      <trkpt lon="34.974539978429675" lat="32.14047996327281">
        <ele>61.20000076293945</ele>
        <time>2011-05-06T05:02:10.000Z</time>
      </trkpt>
      <trkpt lon="34.9745799601078" lat="32.140469988808036">
        <ele>61.0</ele>
        <time>2011-05-06T05:02:11.000Z</time>
      </trkpt>
      <trkpt lon="34.97471993789077" lat="32.14035993441939">
        <ele>61.20000076293945</ele>
        <time>2011-05-06T05:02:16.000Z</time>
      </trkpt>
      <trkpt lon="34.974839966744184" lat="32.14024996384978">
        <ele>61.599998474121094</ele>
        <time>2011-05-06T05:02:26.000Z</time>
      </trkpt>
      <trkpt lon="34.974839966744184" lat="32.14024996384978">
        <ele>61.599998474121094</ele>
        <time>2011-05-06T05:02:29.000Z</time>
      </trkpt>
      <trkpt lon="34.974839966744184" lat="32.14024996384978">
        <ele>61.599998474121094</ele>
        <time>2011-05-06T05:02:30.000Z</time>
      </trkpt>
      <trkpt lon="34.974839966744184" lat="32.14024996384978">
        <ele>61.599998474121094</ele>
        <time>2011-05-06T05:02:31.000Z</time>
      </trkpt>
      <trkpt lon="34.97484994120896" lat="32.14024996384978">
        <ele>61.599998474121094</ele>
        <time>2011-05-06T05:02:32.000Z</time>
      </trkpt>
      <trkpt lon="34.974839966744184" lat="32.14021995663643">
        <ele>61.79999923706055</ele>
        <time>2011-05-06T05:02:38.000Z</time>
      </trkpt>
      <trkpt lon="34.97484994120896" lat="32.14021995663643">
        <ele>61.79999923706055</ele>
        <time>2011-05-06T05:02:41.000Z</time>
      </trkpt>
      <trkpt lon="34.97484994120896" lat="32.14021995663643">
        <ele>61.79999923706055</ele>
        <time>2011-05-06T05:03:06.000Z</time>
      </trkpt>
      <trkpt lon="34.97484994120896" lat="32.140189949423075">
        <ele>62.0</ele>
        <time>2011-05-06T05:03:17.000Z</time>
      </trkpt>
      <trkpt lon="34.97484994120896" lat="32.1401799749583">
        <ele>62.0</ele>
        <time>2011-05-06T05:03:30.000Z</time>
      </trkpt>
      <trkpt lon="34.974859999492764" lat="32.1401799749583">
        <ele>62.0</ele>
        <time>2011-05-06T05:03:31.000Z</time>
      </trkpt>
      <trkpt lon="34.974859999492764" lat="32.1401799749583">
        <ele>62.0</ele>
        <time>2011-05-06T05:03:32.000Z</time>
      </trkpt>
      <trkpt lon="34.97484994120896" lat="32.1401799749583">
        <ele>62.0</ele>
        <time>2011-05-06T05:03:35.000Z</time>
      </trkpt>
      <trkpt lon="34.974859999492764" lat="32.140189949423075">
        <ele>62.0</ele>
        <time>2011-05-06T05:03:40.000Z</time>
      </trkpt>
      <trkpt lon="34.974859999492764" lat="32.1401799749583">
        <ele>62.0</ele>
        <time>2011-05-06T05:03:44.000Z</time>
      </trkpt>
      <trkpt lon="34.97488992288709" lat="32.14009992778301">
        <ele>62.400001525878906</ele>
        <time>2011-05-06T05:03:51.000Z</time>
      </trkpt>
      <trkpt lon="34.97486997395754" lat="32.139999931678176">
        <ele>63.20000076293945</ele>
        <time>2011-05-06T05:03:59.000Z</time>
      </trkpt>
      <trkpt lon="34.97488992288709" lat="32.140079978853464">
        <ele>62.599998474121094</ele>
        <time>2011-05-06T05:04:08.000Z</time>
      </trkpt>
      <trkpt lon="34.97488992288709" lat="32.14004997164011">
        <ele>62.79999923706055</ele>
        <time>2011-05-06T05:04:12.000Z</time>
      </trkpt>
      <trkpt lon="34.97486997395754" lat="32.140039997175336">
        <ele>63.0</ele>
        <time>2011-05-06T05:04:14.000Z</time>
      </trkpt>
      <trkpt lon="34.974859999492764" lat="32.14009992778301">
        <ele>62.599998474121094</ele>
        <time>2011-05-06T05:04:18.000Z</time>
      </trkpt>
      <trkpt lon="34.97488992288709" lat="32.14014996774495">
        <ele>62.20000076293945</ele>
        <time>2011-05-06T05:04:21.000Z</time>
      </trkpt>
      <trkpt lon="34.9749599955976" lat="32.14014996774495">
        <ele>62.0</ele>
        <time>2011-05-06T05:04:26.000Z</time>
      </trkpt>
      <trkpt lon="34.975099973380566" lat="32.13995995000005">
        <ele>64.19999694824219</ele>
        <time>2011-05-06T05:04:39.000Z</time>
      </trkpt>
      <trkpt lon="34.975099973380566" lat="32.13994997553527">
        <ele>64.4000015258789</ele>
        <time>2011-05-06T05:04:41.000Z</time>
      </trkpt>
      <trkpt lon="34.97508999891579" lat="32.13991996832192">
        <ele>65.19999694824219</ele>
        <time>2011-05-06T05:04:45.000Z</time>
      </trkpt>
      <trkpt lon="34.975079940631986" lat="32.139869928359985">
        <ele>66.19999694824219</ele>
        <time>2011-05-06T05:04:57.000Z</time>
      </trkpt>
      <trkpt lon="34.97491993010044" lat="32.1397499833256">
        <ele>68.19999694824219</ele>
        <time>2011-05-06T05:05:10.000Z</time>
      </trkpt>
      <trkpt lon="34.974729996174574" lat="32.139589972794056">
        <ele>71.19999694824219</ele>
        <time>2011-05-06T05:05:25.000Z</time>
      </trkpt>
      <trkpt lon="34.97471993789077" lat="32.1395599655807">
        <ele>71.5999984741211</ele>
        <time>2011-05-06T05:05:28.000Z</time>
      </trkpt>
      <trkpt lon="34.97471993789077" lat="32.1395599655807">
        <ele>71.5999984741211</ele>
        <time>2011-05-06T05:05:29.000Z</time>
      </trkpt>
      <trkpt lon="34.974729996174574" lat="32.139459969475865">
        <ele>73.5999984741211</ele>
        <time>2011-05-06T05:05:45.000Z</time>
      </trkpt>
      <trkpt lon="34.97469998896122" lat="32.139459969475865">
        <ele>73.4000015258789</ele>
        <time>2011-05-06T05:06:01.000Z</time>
      </trkpt>
      <trkpt lon="34.97461994178593" lat="32.139479918405414">
        <ele>72.80000305175781</ele>
        <time>2011-05-06T05:06:16.000Z</time>
      </trkpt>
      <trkpt lon="34.97461994178593" lat="32.139479918405414">
        <ele>72.80000305175781</ele>
        <time>2011-05-06T05:06:21.000Z</time>
      </trkpt>
      <trkpt lon="34.97458993457258" lat="32.139439936727285">
        <ele>73.4000015258789</ele>
        <time>2011-05-06T05:06:25.000Z</time>
      </trkpt>
      <trkpt lon="34.9745799601078" lat="32.13939995504916">
        <ele>74.0</ele>
        <time>2011-05-06T05:06:28.000Z</time>
      </trkpt>
      <trkpt lon="34.97441994957626" lat="32.139309933409095">
        <ele>74.5999984741211</ele>
        <time>2011-05-06T05:06:37.000Z</time>
      </trkpt>
      <trkpt lon="34.974369993433356" lat="32.13922997005284">
        <ele>75.4000015258789</ele>
        <time>2011-05-06T05:06:41.000Z</time>
      </trkpt>
      <trkpt lon="34.974349960684776" lat="32.13916995562613">
        <ele>76.19999694824219</ele>
        <time>2011-05-06T05:06:52.000Z</time>
      </trkpt>
      <trkpt lon="34.97442992404103" lat="32.13909996673465">
        <ele>77.5999984741211</ele>
        <time>2011-05-06T05:07:00.000Z</time>
      </trkpt>
      <trkpt lon="34.97429992072284" lat="32.13899997062981">
        <ele>77.80000305175781</ele>
        <time>2011-05-06T05:07:09.000Z</time>
      </trkpt>
      <trkpt lon="34.97429992072284" lat="32.13891992345452">
        <ele>78.5999984741211</ele>
        <time>2011-05-06T05:07:14.000Z</time>
      </trkpt>
      <trkpt lon="34.97442992404103" lat="32.13888991624117">
        <ele>80.0</ele>
        <time>2011-05-06T05:07:26.000Z</time>
      </trkpt>
      <trkpt lon="34.97448993846774" lat="32.138879941776395">
        <ele>80.5999984741211</ele>
        <time>2011-05-06T05:07:40.000Z</time>
      </trkpt>
      <trkpt lon="34.974539978429675" lat="32.13885999284685">
        <ele>81.19999694824219</ele>
        <time>2011-05-06T05:07:46.000Z</time>
      </trkpt>
      <trkpt lon="34.974539978429675" lat="32.13884993456304">
        <ele>81.4000015258789</ele>
        <time>2011-05-06T05:07:47.000Z</time>
      </trkpt>
      <trkpt lon="34.974519945681095" lat="32.13883996009827">
        <ele>81.4000015258789</ele>
        <time>2011-05-06T05:07:49.000Z</time>
      </trkpt>
      <trkpt lon="34.97444995678961" lat="32.13865991681814">
        <ele>82.80000305175781</ele>
        <time>2011-05-06T05:07:59.000Z</time>
      </trkpt>
      <trkpt lon="34.97442992404103" lat="32.138559920713305">
        <ele>83.80000305175781</ele>
        <time>2011-05-06T05:08:05.000Z</time>
      </trkpt>
      <trkpt lon="34.97431995347142" lat="32.13845992460847">
        <ele>84.0</ele>
        <time>2011-05-06T05:08:11.000Z</time>
      </trkpt>
      <trkpt lon="34.97426999732852" lat="32.138319946825504">
        <ele>85.0</ele>
        <time>2011-05-06T05:08:18.000Z</time>
      </trkpt>
      <trkpt lon="34.97420998290181" lat="32.138129929080606">
        <ele>85.4000015258789</ele>
        <time>2011-05-06T05:08:28.000Z</time>
      </trkpt>
      <trkpt lon="34.97430997900665" lat="32.137909987941384">
        <ele>87.4000015258789</ele>
        <time>2011-05-06T05:08:40.000Z</time>
      </trkpt>
      <trkpt lon="34.974329927936196" lat="32.137739919126034">
        <ele>88.5999984741211</ele>
        <time>2011-05-06T05:08:47.000Z</time>
      </trkpt>
      <trkpt lon="34.97446998953819" lat="32.13749994523823">
        <ele>91.5999984741211</ele>
        <time>2011-05-06T05:08:58.000Z</time>
      </trkpt>
      <trkpt lon="34.97454995289445" lat="32.137479996308684">
        <ele>92.5999984741211</ele>
        <time>2011-05-06T05:09:01.000Z</time>
      </trkpt>
      <trkpt lon="34.9745799601078" lat="32.13744998909533">
        <ele>93.19999694824219</ele>
        <time>2011-05-06T05:09:03.000Z</time>
      </trkpt>
      <trkpt lon="34.974729996174574" lat="32.13749994523823">
        <ele>94.5999984741211</ele>
        <time>2011-05-06T05:09:11.000Z</time>
      </trkpt>
      <trkpt lon="34.97480995953083" lat="32.13753992691636">
        <ele>95.4000015258789</ele>
        <time>2011-05-06T05:09:16.000Z</time>
      </trkpt>
      <trkpt lon="34.974969970062375" lat="32.13753992691636">
        <ele>97.19999694824219</ele>
        <time>2011-05-06T05:09:28.000Z</time>
      </trkpt>
      <trkpt lon="34.97499997727573" lat="32.13755995966494">
        <ele>97.4000015258789</ele>
        <time>2011-05-06T05:09:42.000Z</time>
      </trkpt>
      <trkpt lon="34.97499997727573" lat="32.13755995966494">
        <ele>97.4000015258789</ele>
        <time>2011-05-06T05:10:09.000Z</time>
      </trkpt>
      <trkpt lon="34.97498991899192" lat="32.13757999241352">
        <ele>97.19999694824219</ele>
        <time>2011-05-06T05:10:46.000Z</time>
      </trkpt>
      <trkpt lon="34.97499997727573" lat="32.13755995966494">
        <ele>97.4000015258789</ele>
        <time>2011-05-06T05:10:57.000Z</time>
      </trkpt>
      <trkpt lon="34.9750099517405" lat="32.137609999626875">
        <ele>97.19999694824219</ele>
        <time>2011-05-06T05:11:01.000Z</time>
      </trkpt>
      <trkpt lon="34.97516996227205" lat="32.13797997683287">
        <ele>95.5999984741211</ele>
        <time>2011-05-06T05:11:18.000Z</time>
      </trkpt>
      <trkpt lon="34.97527993284166" lat="32.138319946825504">
        <ele>94.4000015258789</ele>
        <time>2011-05-06T05:11:31.000Z</time>
      </trkpt>
      <trkpt lon="34.97533994726837" lat="32.13843997567892">
        <ele>93.4000015258789</ele>
        <time>2011-05-06T05:11:44.000Z</time>
      </trkpt>
      <trkpt lon="34.97534992173314" lat="32.13845992460847">
        <ele>93.19999694824219</ele>
        <time>2011-05-06T05:11:56.000Z</time>
      </trkpt>
      <trkpt lon="34.97547992505133" lat="32.13879997842014">
        <ele>90.0</ele>
        <time>2011-05-06T05:12:09.000Z</time>
      </trkpt>
      <trkpt lon="34.97548998333514" lat="32.13881992734969">
        <ele>90.0</ele>
        <time>2011-05-06T05:12:10.000Z</time>
      </trkpt>
      <trkpt lon="34.97560992836952" lat="32.13883996009827">
        <ele>90.80000305175781</ele>
        <time>2011-05-06T05:12:16.000Z</time>
      </trkpt>
      <trkpt lon="34.97566994279623" lat="32.13879997842014">
        <ele>91.80000305175781</ele>
        <time>2011-05-06T05:12:20.000Z</time>
      </trkpt>
      <trkpt lon="34.975809920579195" lat="32.138619935140014">
        <ele>95.19999694824219</ele>
        <time>2011-05-06T05:12:31.000Z</time>
      </trkpt>
      <trkpt lon="34.97603992000222" lat="32.138559920713305">
        <ele>95.80000305175781</ele>
        <time>2011-05-06T05:12:42.000Z</time>
      </trkpt>
      <trkpt lon="34.97619993053377" lat="32.138449950143695">
        <ele>96.80000305175781</ele>
        <time>2011-05-06T05:12:53.000Z</time>
      </trkpt>
      <trkpt lon="34.9762499704957" lat="32.13841994293034">
        <ele>97.19999694824219</ele>
        <time>2011-05-06T05:12:56.000Z</time>
      </trkpt>
      <trkpt lon="34.97611996717751" lat="32.138299997895956">
        <ele>98.5999984741211</ele>
        <time>2011-05-06T05:13:06.000Z</time>
      </trkpt>
      <trkpt lon="34.976069927215576" lat="32.138129929080606">
        <ele>98.80000305175781</ele>
        <time>2011-05-06T05:13:17.000Z</time>
      </trkpt>
      <trkpt lon="34.976149974390864" lat="32.137909987941384">
        <ele>99.0</ele>
        <time>2011-05-06T05:13:28.000Z</time>
      </trkpt>
      <trkpt lon="34.97616992332041" lat="32.137849973514676">
        <ele>99.0</ele>
        <time>2011-05-06T05:13:37.000Z</time>
      </trkpt>
      <trkpt lon="34.97616992332041" lat="32.1378399990499">
        <ele>99.0</ele>
        <time>2011-05-06T05:13:51.000Z</time>
      </trkpt>
      <trkpt lon="34.97617998160422" lat="32.137849973514676">
        <ele>99.0</ele>
        <time>2011-05-06T05:14:00.000Z</time>
      </trkpt>
      <trkpt lon="34.97633999213576" lat="32.13772994466126">
        <ele>98.4000015258789</ele>
        <time>2011-05-06T05:14:08.000Z</time>
      </trkpt>
      <trkpt lon="34.97634996660054" lat="32.13766993023455">
        <ele>98.4000015258789</ele>
        <time>2011-05-06T05:14:12.000Z</time>
      </trkpt>
      <trkpt lon="34.976129941642284" lat="32.13742995634675">
        <ele>99.5999984741211</ele>
        <time>2011-05-06T05:14:24.000Z</time>
      </trkpt>
      <trkpt lon="34.975959956645966" lat="32.137309927493334">
        <ele>101.0</ele>
        <time>2011-05-06T05:14:32.000Z</time>
      </trkpt>
      <trkpt lon="34.97579994611442" lat="32.137329960241914">
        <ele>101.5999984741211</ele>
        <time>2011-05-06T05:14:37.000Z</time>
      </trkpt>
      <trkpt lon="34.97575996443629" lat="32.13722996413708">
        <ele>102.0</ele>
        <time>2011-05-06T05:14:42.000Z</time>
      </trkpt>
      <trkpt lon="34.97575996443629" lat="32.137159975245595">
        <ele>102.19999694824219</ele>
        <time>2011-05-06T05:14:45.000Z</time>
      </trkpt>
      <trkpt lon="34.97583992779255" lat="32.13701999746263">
        <ele>103.19999694824219</ele>
        <time>2011-05-06T05:14:54.000Z</time>
      </trkpt>
      <trkpt lon="34.975829953327775" lat="32.13697993196547">
        <ele>103.4000015258789</ele>
        <time>2011-05-06T05:14:56.000Z</time>
      </trkpt>
      <trkpt lon="34.97583992779255" lat="32.136899968609214">
        <ele>103.80000305175781</ele>
        <time>2011-05-06T05:15:09.000Z</time>
      </trkpt>
      <trkpt lon="34.97583992779255" lat="32.13688999414444">
        <ele>103.80000305175781</ele>
        <time>2011-05-06T05:15:31.000Z</time>
      </trkpt>
      <trkpt lon="34.975849986076355" lat="32.136879935860634">
        <ele>103.5999984741211</ele>
        <time>2011-05-06T05:15:48.000Z</time>
      </trkpt>
      <trkpt lon="34.975849986076355" lat="32.136879935860634">
        <ele>103.5999984741211</ele>
        <time>2011-05-06T05:15:52.000Z</time>
      </trkpt>
      <trkpt lon="34.975849986076355" lat="32.136879935860634">
        <ele>103.5999984741211</ele>
        <time>2011-05-06T05:15:55.000Z</time>
      </trkpt>
      <trkpt lon="34.9758699350059" lat="32.136899968609214">
        <ele>103.4000015258789</ele>
        <time>2011-05-06T05:16:55.000Z</time>
      </trkpt>
      <trkpt lon="34.97585996054113" lat="32.13690994307399">
        <ele>103.4000015258789</ele>
        <time>2011-05-06T05:17:24.000Z</time>
      </trkpt>
      <trkpt lon="34.97583992779255" lat="32.13686996139586">
        <ele>103.80000305175781</ele>
        <time>2011-05-06T05:17:52.000Z</time>
      </trkpt>
      <trkpt lon="34.97585996054113" lat="32.136859986931086">
        <ele>103.5999984741211</ele>
        <time>2011-05-06T05:18:06.000Z</time>
      </trkpt>
      <trkpt lon="34.97585996054113" lat="32.136859986931086">
        <ele>103.5999984741211</ele>
        <time>2011-05-06T05:18:11.000Z</time>
      </trkpt>
      <trkpt lon="34.97587999328971" lat="32.136859986931086">
        <ele>103.4000015258789</ele>
        <time>2011-05-06T05:18:13.000Z</time>
      </trkpt>
      <trkpt lon="34.975939923897386" lat="32.13686996139586">
        <ele>102.5999984741211</ele>
        <time>2011-05-06T05:18:18.000Z</time>
      </trkpt>
      <trkpt lon="34.975959956645966" lat="32.13688999414444">
        <ele>102.4000015258789</ele>
        <time>2011-05-06T05:18:20.000Z</time>
      </trkpt>
      <trkpt lon="34.975999938324094" lat="32.136879935860634">
        <ele>101.80000305175781</ele>
        <time>2011-05-06T05:18:24.000Z</time>
      </trkpt>
      <trkpt lon="34.97598996385932" lat="32.136689918115735">
        <ele>102.5999984741211</ele>
        <time>2011-05-06T05:18:34.000Z</time>
      </trkpt>
      <trkpt lon="34.97594998218119" lat="32.1365899220109">
        <ele>103.19999694824219</ele>
        <time>2011-05-06T05:18:41.000Z</time>
      </trkpt>
      <trkpt lon="34.97590991668403" lat="32.136409962549806">
        <ele>103.80000305175781</ele>
        <time>2011-05-06T05:18:51.000Z</time>
      </trkpt>
      <trkpt lon="34.97591997496784" lat="32.13633997365832">
        <ele>103.5999984741211</ele>
        <time>2011-05-06T05:18:54.000Z</time>
      </trkpt>
      <trkpt lon="34.975809920579195" lat="32.13628993369639">
        <ele>104.80000305175781</ele>
        <time>2011-05-06T05:19:00.000Z</time>
      </trkpt>
      <trkpt lon="34.97560992836952" lat="32.13623997755349">
        <ele>104.5999984741211</ele>
        <time>2011-05-06T05:19:07.000Z</time>
      </trkpt>
      <trkpt lon="34.97544991783798" lat="32.13593998923898">
        <ele>105.19999694824219</ele>
        <time>2011-05-06T05:19:20.000Z</time>
      </trkpt>
      <trkpt lon="34.97551999054849" lat="32.13578995317221">
        <ele>105.4000015258789</ele>
        <time>2011-05-06T05:19:30.000Z</time>
      </trkpt>
      <trkpt lon="34.97551999054849" lat="32.13578995317221">
        <ele>105.4000015258789</ele>
        <time>2011-05-06T05:19:39.000Z</time>
      </trkpt>
      <trkpt lon="34.97551999054849" lat="32.13575994595885">
        <ele>105.5999984741211</ele>
        <time>2011-05-06T05:19:41.000Z</time>
      </trkpt>
      <trkpt lon="34.97548998333514" lat="32.135679982602596">
        <ele>105.80000305175781</ele>
        <time>2011-05-06T05:19:46.000Z</time>
      </trkpt>
      <trkpt lon="34.97561998665333" lat="32.135569928213954">
        <ele>106.0</ele>
        <time>2011-05-06T05:19:53.000Z</time>
      </trkpt>
      <trkpt lon="34.97576993890107" lat="32.135549979284406">
        <ele>106.0</ele>
        <time>2011-05-06T05:19:58.000Z</time>
      </trkpt>
      <trkpt lon="34.97598996385932" lat="32.13538996875286">
        <ele>105.0</ele>
        <time>2011-05-06T05:20:09.000Z</time>
      </trkpt>
      <trkpt lon="34.9760599527508" lat="32.135269939899445">
        <ele>105.0</ele>
        <time>2011-05-06T05:20:14.000Z</time>
      </trkpt>
      <trkpt lon="34.97596993111074" lat="32.13516994379461">
        <ele>106.19999694824219</ele>
        <time>2011-05-06T05:20:19.000Z</time>
      </trkpt>
      <trkpt lon="34.97592994943261" lat="32.13508998043835">
        <ele>107.0</ele>
        <time>2011-05-06T05:20:23.000Z</time>
      </trkpt>
      <trkpt lon="34.97587999328971" lat="32.13493994437158">
        <ele>108.0</ele>
        <time>2011-05-06T05:20:33.000Z</time>
      </trkpt>
      <trkpt lon="34.97587999328971" lat="32.1348699554801">
        <ele>108.19999694824219</ele>
        <time>2011-05-06T05:20:36.000Z</time>
      </trkpt>
      <trkpt lon="34.97591997496784" lat="32.1346299815923">
        <ele>109.4000015258789</ele>
        <time>2011-05-06T05:20:53.000Z</time>
      </trkpt>
      <trkpt lon="34.97591997496784" lat="32.1346299815923">
        <ele>109.4000015258789</ele>
        <time>2011-05-06T05:20:54.000Z</time>
      </trkpt>
      <trkpt lon="34.97590991668403" lat="32.13461992330849">
        <ele>109.4000015258789</ele>
        <time>2011-05-06T05:21:00.000Z</time>
      </trkpt>
      <trkpt lon="34.97590991668403" lat="32.13461992330849">
        <ele>109.4000015258789</ele>
        <time>2011-05-06T05:21:01.000Z</time>
      </trkpt>
      <trkpt lon="34.97590991668403" lat="32.13461992330849">
        <ele>109.4000015258789</ele>
        <time>2011-05-06T05:21:02.000Z</time>
      </trkpt>
      <trkpt lon="34.97589994221926" lat="32.13461992330849">
        <ele>109.4000015258789</ele>
        <time>2011-05-06T05:21:18.000Z</time>
      </trkpt>
      <trkpt lon="34.97589994221926" lat="32.13461992330849">
        <ele>109.4000015258789</ele>
        <time>2011-05-06T05:21:19.000Z</time>
      </trkpt>
      <trkpt lon="34.97589994221926" lat="32.13461992330849">
        <ele>109.4000015258789</ele>
        <time>2011-05-06T05:21:20.000Z</time>
      </trkpt>
      <trkpt lon="34.97589994221926" lat="32.13460994884372">
        <ele>109.5999984741211</ele>
        <time>2011-05-06T05:21:25.000Z</time>
      </trkpt>
      <trkpt lon="34.97589994221926" lat="32.13460994884372">
        <ele>109.5999984741211</ele>
        <time>2011-05-06T05:21:26.000Z</time>
      </trkpt>
      <trkpt lon="34.97589994221926" lat="32.13460994884372">
        <ele>109.5999984741211</ele>
        <time>2011-05-06T05:21:27.000Z</time>
      </trkpt>
      <trkpt lon="34.97588996775448" lat="32.13460994884372">
        <ele>109.5999984741211</ele>
        <time>2011-05-06T05:21:29.000Z</time>
      </trkpt>
      <trkpt lon="34.97588996775448" lat="32.13460994884372">
        <ele>109.5999984741211</ele>
        <time>2011-05-06T05:21:30.000Z</time>
      </trkpt>
      <trkpt lon="34.97588996775448" lat="32.13460994884372">
        <ele>109.5999984741211</ele>
        <time>2011-05-06T05:21:42.000Z</time>
      </trkpt>
      <trkpt lon="34.97589994221926" lat="32.13460994884372">
        <ele>109.5999984741211</ele>
        <time>2011-05-06T05:21:43.000Z</time>
      </trkpt>
      <trkpt lon="34.97589994221926" lat="32.1346299815923">
        <ele>109.4000015258789</ele>
        <time>2011-05-06T05:22:00.000Z</time>
      </trkpt>
      <trkpt lon="34.97588996775448" lat="32.134649930521846">
        <ele>109.4000015258789</ele>
        <time>2011-05-06T05:22:06.000Z</time>
      </trkpt>
      <trkpt lon="34.975809920579195" lat="32.134779933840036">
        <ele>109.0</ele>
        <time>2011-05-06T05:22:21.000Z</time>
      </trkpt>
      <trkpt lon="34.97589994221926" lat="32.134649930521846">
        <ele>109.4000015258789</ele>
        <time>2011-05-06T05:22:41.000Z</time>
      </trkpt>
      <trkpt lon="34.97590991668403" lat="32.13463995605707">
        <ele>109.4000015258789</ele>
        <time>2011-05-06T05:22:55.000Z</time>
      </trkpt>
      <trkpt lon="34.97590991668403" lat="32.13463995605707">
        <ele>109.4000015258789</ele>
        <time>2011-05-06T05:22:56.000Z</time>
      </trkpt>
      <trkpt lon="34.97590991668403" lat="32.13463995605707">
        <ele>109.4000015258789</ele>
        <time>2011-05-06T05:22:59.000Z</time>
      </trkpt>
      <trkpt lon="34.97590991668403" lat="32.13463995605707">
        <ele>109.4000015258789</ele>
        <time>2011-05-06T05:23:01.000Z</time>
      </trkpt>
      <trkpt lon="34.97590991668403" lat="32.13463995605707">
        <ele>109.4000015258789</ele>
        <time>2011-05-06T05:23:02.000Z</time>
      </trkpt>
      <trkpt lon="34.97590991668403" lat="32.13463995605707">
        <ele>109.4000015258789</ele>
        <time>2011-05-06T05:23:03.000Z</time>
      </trkpt>
      <trkpt lon="34.97590991668403" lat="32.13463995605707">
        <ele>109.4000015258789</ele>
        <time>2011-05-06T05:23:04.000Z</time>
      </trkpt>
      <trkpt lon="34.97590991668403" lat="32.13463995605707">
        <ele>109.4000015258789</ele>
        <time>2011-05-06T05:23:05.000Z</time>
      </trkpt>
      <trkpt lon="34.97590991668403" lat="32.13463995605707">
        <ele>109.4000015258789</ele>
        <time>2011-05-06T05:23:08.000Z</time>
      </trkpt>
      <trkpt lon="34.97590991668403" lat="32.134649930521846">
        <ele>109.19999694824219</ele>
        <time>2011-05-06T05:23:47.000Z</time>
      </trkpt>
      <trkpt lon="34.97591997496784" lat="32.134649930521846">
        <ele>109.19999694824219</ele>
        <time>2011-05-06T05:24:16.000Z</time>
      </trkpt>
      <trkpt lon="34.97591997496784" lat="32.1346299815923">
        <ele>109.4000015258789</ele>
        <time>2011-05-06T05:24:33.000Z</time>
      </trkpt>
      <trkpt lon="34.97591997496784" lat="32.13461992330849">
        <ele>109.4000015258789</ele>
        <time>2011-05-06T05:24:52.000Z</time>
      </trkpt>
      <trkpt lon="34.97590991668403" lat="32.13461992330849">
        <ele>109.4000015258789</ele>
        <time>2011-05-06T05:25:04.000Z</time>
      </trkpt>
      <trkpt lon="34.97589994221926" lat="32.13461992330849">
        <ele>109.4000015258789</ele>
        <time>2011-05-06T05:25:05.000Z</time>
      </trkpt>
      <trkpt lon="34.97589994221926" lat="32.13460994884372">
        <ele>109.5999984741211</ele>
        <time>2011-05-06T05:25:07.000Z</time>
      </trkpt>
      <trkpt lon="34.97588996775448" lat="32.134539959952235">
        <ele>110.0</ele>
        <time>2011-05-06T05:25:13.000Z</time>
      </trkpt>
      <trkpt lon="34.97587999328971" lat="32.13449997827411">
        <ele>110.19999694824219</ele>
        <time>2011-05-06T05:25:16.000Z</time>
      </trkpt>
      <trkpt lon="34.975829953327775" lat="32.13435991667211">
        <ele>111.0</ele>
        <time>2011-05-06T05:25:26.000Z</time>
      </trkpt>
      <trkpt lon="34.976069927215576" lat="32.13426997885108">
        <ele>111.0</ele>
        <time>2011-05-06T05:25:40.000Z</time>
      </trkpt>
      <trkpt lon="34.97621996328235" lat="32.13418993167579">
        <ele>111.19999694824219</ele>
        <time>2011-05-06T05:25:49.000Z</time>
      </trkpt>
      <trkpt lon="34.9762499704957" lat="32.13415992446244">
        <ele>111.4000015258789</ele>
        <time>2011-05-06T05:25:52.000Z</time>
      </trkpt>
      <trkpt lon="34.97635994106531" lat="32.13402992114425">
        <ele>112.5999984741211</ele>
        <time>2011-05-06T05:26:03.000Z</time>
      </trkpt>
      <trkpt lon="34.976429929956794" lat="32.13398993946612">
        <ele>113.0</ele>
        <time>2011-05-06T05:26:08.000Z</time>
      </trkpt>
      <trkpt lon="34.976689936593175" lat="32.13383998721838">
        <ele>115.19999694824219</ele>
        <time>2011-05-06T05:26:22.000Z</time>
      </trkpt>
      <trkpt lon="34.976839972659945" lat="32.13375994004309">
        <ele>116.19999694824219</ele>
        <time>2011-05-06T05:26:30.000Z</time>
      </trkpt>
      <trkpt lon="34.977119928225875" lat="32.1336299367249">
        <ele>117.80000305175781</ele>
        <time>2011-05-06T05:26:45.000Z</time>
      </trkpt>
      <trkpt lon="34.97742997482419" lat="32.133579980582">
        <ele>118.4000015258789</ele>
        <time>2011-05-06T05:27:00.000Z</time>
      </trkpt>
      <trkpt lon="34.9779199808836" lat="32.13359992951155">
        <ele>118.19999694824219</ele>
        <time>2011-05-06T05:27:18.000Z</time>
      </trkpt>
      <trkpt lon="34.97832993976772" lat="32.13344997726381">
        <ele>121.0</ele>
        <time>2011-05-06T05:27:35.000Z</time>
      </trkpt>
      <trkpt lon="34.97845994308591" lat="32.13340999558568">
        <ele>121.4000015258789</ele>
        <time>2011-05-06T05:27:42.000Z</time>
      </trkpt>
      <trkpt lon="34.97854996472597" lat="32.133399937301874">
        <ele>121.4000015258789</ele>
        <time>2011-05-06T05:27:47.000Z</time>
      </trkpt>
      <trkpt lon="34.978779964149" lat="32.133269933983684">
        <ele>123.19999694824219</ele>
        <time>2011-05-06T05:28:02.000Z</time>
      </trkpt>
      <trkpt lon="34.9789699818939" lat="32.13317999616265">
        <ele>124.4000015258789</ele>
        <time>2011-05-06T05:28:16.000Z</time>
      </trkpt>
      <trkpt lon="34.97905991971493" lat="32.13316993787885">
        <ele>124.4000015258789</ele>
        <time>2011-05-06T05:28:22.000Z</time>
      </trkpt>
      <trkpt lon="34.97914994135499" lat="32.13312995620072">
        <ele>125.0</ele>
        <time>2011-05-06T05:28:28.000Z</time>
      </trkpt>
      <trkpt lon="34.97925999574363" lat="32.13305996730924">
        <ele>126.0</ele>
        <time>2011-05-06T05:28:35.000Z</time>
      </trkpt>
      <trkpt lon="34.97933995909989" lat="32.13304999284446">
        <ele>126.19999694824219</ele>
        <time>2011-05-06T05:28:40.000Z</time>
      </trkpt>
      <trkpt lon="34.979609940201044" lat="32.13299995288253">
        <ele>127.0</ele>
        <time>2011-05-06T05:28:56.000Z</time>
      </trkpt>
      <trkpt lon="34.97984999790788" lat="32.132929963991046">
        <ele>128.60000610351562</ele>
        <time>2011-05-06T05:29:09.000Z</time>
      </trkpt>
      <trkpt lon="34.97991998679936" lat="32.13288998231292">
        <ele>129.39999389648438</ele>
        <time>2011-05-06T05:29:14.000Z</time>
      </trkpt>
      <trkpt lon="34.979979917407036" lat="32.13282996788621">
        <ele>131.0</ele>
        <time>2011-05-06T05:29:19.000Z</time>
      </trkpt>
      <trkpt lon="34.97998997569084" lat="32.13280993513763">
        <ele>131.39999389648438</ele>
        <time>2011-05-06T05:29:20.000Z</time>
      </trkpt>
      <trkpt lon="34.98000992462039" lat="32.13274992071092">
        <ele>132.8000030517578</ele>
        <time>2011-05-06T05:29:24.000Z</time>
      </trkpt>
      <trkpt lon="34.98000992462039" lat="32.13273994624615">
        <ele>133.1999969482422</ele>
        <time>2011-05-06T05:29:25.000Z</time>
      </trkpt>
      <trkpt lon="34.9800699390471" lat="32.132669957354665">
        <ele>134.8000030517578</ele>
        <time>2011-05-06T05:29:30.000Z</time>
      </trkpt>
      <trkpt lon="34.98028996400535" lat="32.13245999068022">
        <ele>139.0</ele>
        <time>2011-05-06T05:29:47.000Z</time>
      </trkpt>
      <trkpt lon="34.98030999675393" lat="32.132429983466864">
        <ele>139.0</ele>
        <time>2011-05-06T05:29:50.000Z</time>
      </trkpt>
      <trkpt lon="34.98045994900167" lat="32.13220995850861">
        <ele>139.8000030517578</ele>
        <time>2011-05-06T05:30:06.000Z</time>
      </trkpt>
      <trkpt lon="34.980749962851405" lat="32.13219998404384">
        <ele>140.60000610351562</ele>
        <time>2011-05-06T05:30:20.000Z</time>
      </trkpt>
      <trkpt lon="34.980859933421016" lat="32.13215991854668">
        <ele>141.0</ele>
        <time>2011-05-06T05:30:26.000Z</time>
      </trkpt>
      <trkpt lon="34.980939980596304" lat="32.13205992244184">
        <ele>141.60000610351562</ele>
        <time>2011-05-06T05:30:34.000Z</time>
      </trkpt>
      <trkpt lon="34.9809299223125" lat="32.13175993412733">
        <ele>143.60000610351562</ele>
        <time>2011-05-06T05:30:49.000Z</time>
      </trkpt>
      <trkpt lon="34.98099999502301" lat="32.13149992749095">
        <ele>144.0</ele>
        <time>2011-05-06T05:31:01.000Z</time>
      </trkpt>
      <trkpt lon="34.981199987232685" lat="32.13132994249463">
        <ele>144.39999389648438</ele>
        <time>2011-05-06T05:31:15.000Z</time>
      </trkpt>
      <trkpt lon="34.98153995722532" lat="32.131229946389794">
        <ele>145.39999389648438</ele>
        <time>2011-05-06T05:31:29.000Z</time>
      </trkpt>
      <trkpt lon="34.982039937749505" lat="32.13101997971535">
        <ele>145.8000030517578</ele>
        <time>2011-05-06T05:31:48.000Z</time>
      </trkpt>
      <trkpt lon="34.98244998045266" lat="32.13082996197045">
        <ele>146.8000030517578</ele>
        <time>2011-05-06T05:32:05.000Z</time>
      </trkpt>
      <trkpt lon="34.982489962130785" lat="32.13082996197045">
        <ele>146.8000030517578</ele>
        <time>2011-05-06T05:32:16.000Z</time>
      </trkpt>
      <trkpt lon="34.982489962130785" lat="32.13082996197045">
        <ele>146.8000030517578</ele>
        <time>2011-05-06T05:32:24.000Z</time>
      </trkpt>
      <trkpt lon="34.982489962130785" lat="32.13083993643522">
        <ele>146.8000030517578</ele>
        <time>2011-05-06T05:33:13.000Z</time>
      </trkpt>
      <trkpt lon="34.982489962130785" lat="32.13083993643522">
        <ele>146.8000030517578</ele>
        <time>2011-05-06T05:34:33.000Z</time>
      </trkpt>
      <trkpt lon="34.98247998766601" lat="32.130819987505674">
        <ele>146.8000030517578</ele>
        <time>2011-05-06T05:34:54.000Z</time>
      </trkpt>
      <trkpt lon="34.98247998766601" lat="32.13080992922187">
        <ele>146.8000030517578</ele>
        <time>2011-05-06T05:35:08.000Z</time>
      </trkpt>
      <trkpt lon="34.982489962130785" lat="32.130799954757094">
        <ele>146.8000030517578</ele>
        <time>2011-05-06T05:35:41.000Z</time>
      </trkpt>
      <trkpt lon="34.982489962130785" lat="32.13080992922187">
        <ele>146.8000030517578</ele>
        <time>2011-05-06T05:36:24.000Z</time>
      </trkpt>
      <trkpt lon="34.98253991827369" lat="32.13091998361051">
        <ele>146.60000610351562</ele>
        <time>2011-05-06T05:36:31.000Z</time>
      </trkpt>
      <trkpt lon="34.98247998766601" lat="32.13113992474973">
        <ele>145.8000030517578</ele>
        <time>2011-05-06T05:36:41.000Z</time>
      </trkpt>
      <trkpt lon="34.98255995102227" lat="32.13125995360315">
        <ele>145.0</ele>
        <time>2011-05-06T05:36:46.000Z</time>
      </trkpt>
      <trkpt lon="34.982469929382205" lat="32.131469920277596">
        <ele>144.60000610351562</ele>
        <time>2011-05-06T05:36:53.000Z</time>
      </trkpt>
      <trkpt lon="34.98228996992111" lat="32.13156991638243">
        <ele>144.8000030517578</ele>
        <time>2011-05-06T05:36:58.000Z</time>
      </trkpt>
      <trkpt lon="34.9824199732393" lat="32.131599923595786">
        <ele>144.39999389648438</ele>
        <time>2011-05-06T05:37:05.000Z</time>
      </trkpt>
      <trkpt lon="34.98251996934414" lat="32.13157997466624">
        <ele>144.0</ele>
        <time>2011-05-06T05:37:07.000Z</time>
      </trkpt>
      <trkpt lon="34.98282993212342" lat="32.13142993859947">
        <ele>142.1999969482422</ele>
        <time>2011-05-06T05:37:16.000Z</time>
      </trkpt>
      <trkpt lon="34.98287997208536" lat="32.13139993138611">
        <ele>142.0</ele>
        <time>2011-05-06T05:37:18.000Z</time>
      </trkpt>
      <trkpt lon="34.98314995318651" lat="32.13115995749831">
        <ele>143.60000610351562</ele>
        <time>2011-05-06T05:37:29.000Z</time>
      </trkpt>
      <trkpt lon="34.98316998593509" lat="32.13112995028496">
        <ele>144.0</ele>
        <time>2011-05-06T05:37:30.000Z</time>
      </trkpt>
      <trkpt lon="34.98328993096948" lat="32.13097999803722">
        <ele>146.1999969482422</ele>
        <time>2011-05-06T05:37:37.000Z</time>
      </trkpt>
      <trkpt lon="34.983479948714375" lat="32.13084999471903">
        <ele>147.60000610351562</ele>
        <time>2011-05-06T05:37:44.000Z</time>
      </trkpt>
      <trkpt lon="34.983589919283986" lat="32.13091998361051">
        <ele>145.39999389648438</ele>
        <time>2011-05-06T05:37:49.000Z</time>
      </trkpt>
      <trkpt lon="34.9837099481374" lat="32.130929958075285">
        <ele>144.39999389648438</ele>
        <time>2011-05-06T05:37:53.000Z</time>
      </trkpt>
      <trkpt lon="34.98388999141753" lat="32.130909925326705">
        <ele>143.60000610351562</ele>
        <time>2011-05-06T05:37:59.000Z</time>
      </trkpt>
      <trkpt lon="34.98406995087862" lat="32.13067992590368">
        <ele>144.8000030517578</ele>
        <time>2011-05-06T05:38:07.000Z</time>
      </trkpt>
      <trkpt lon="34.984079925343394" lat="32.13056995533407">
        <ele>145.60000610351562</ele>
        <time>2011-05-06T05:38:11.000Z</time>
      </trkpt>
      <trkpt lon="34.98417992144823" lat="32.13063994422555">
        <ele>144.39999389648438</ele>
        <time>2011-05-06T05:38:17.000Z</time>
      </trkpt>
      <trkpt lon="34.98418997973204" lat="32.130799954757094">
        <ele>142.8000030517578</ele>
        <time>2011-05-06T05:38:21.000Z</time>
      </trkpt>
      <trkpt lon="34.984209928661585" lat="32.13100992143154">
        <ele>139.1999969482422</ele>
        <time>2011-05-06T05:38:28.000Z</time>
      </trkpt>
      <trkpt lon="34.98425996862352" lat="32.13114998303354">
        <ele>136.39999389648438</ele>
        <time>2011-05-06T05:38:36.000Z</time>
      </trkpt>
      <trkpt lon="34.984359964728355" lat="32.131119975820184">
        <ele>136.0</ele>
        <time>2011-05-06T05:38:39.000Z</time>
      </trkpt>
      <trkpt lon="34.98438997194171" lat="32.13093993254006">
        <ele>138.39999389648438</ele>
        <time>2011-05-06T05:38:46.000Z</time>
      </trkpt>
      <trkpt lon="34.98426994308829" lat="32.13065997697413">
        <ele>143.0</ele>
        <time>2011-05-06T05:38:58.000Z</time>
      </trkpt>
      <trkpt lon="34.98425996862352" lat="32.130499966442585">
        <ele>144.60000610351562</ele>
        <time>2011-05-06T05:39:10.000Z</time>
      </trkpt>
      <trkpt lon="34.98426994308829" lat="32.130499966442585">
        <ele>144.39999389648438</ele>
        <time>2011-05-06T05:39:26.000Z</time>
      </trkpt>
      <trkpt lon="34.984249994158745" lat="32.13048999197781">
        <ele>144.8000030517578</ele>
        <time>2011-05-06T05:39:42.000Z</time>
      </trkpt>
      <trkpt lon="34.984249994158745" lat="32.13048999197781">
        <ele>144.8000030517578</ele>
        <time>2011-05-06T05:39:46.000Z</time>
      </trkpt>
      <trkpt lon="34.98415997251868" lat="32.130329981446266">
        <ele>147.1999969482422</ele>
        <time>2011-05-06T05:39:56.000Z</time>
      </trkpt>
      <trkpt lon="34.98419995419681" lat="32.13003996759653">
        <ele>149.1999969482422</ele>
        <time>2011-05-06T05:40:12.000Z</time>
      </trkpt>
      <trkpt lon="34.98429995030165" lat="32.12977996096015">
        <ele>148.60000610351562</ele>
        <time>2011-05-06T05:40:24.000Z</time>
      </trkpt>
      <trkpt lon="34.98427991755307" lat="32.12951995432377">
        <ele>149.0</ele>
        <time>2011-05-06T05:40:35.000Z</time>
      </trkpt>
      <trkpt lon="34.98425996862352" lat="32.129319962114096">
        <ele>149.1999969482422</ele>
        <time>2011-05-06T05:40:44.000Z</time>
      </trkpt>
      <trkpt lon="34.98434999026358" lat="32.129369918257">
        <ele>148.60000610351562</ele>
        <time>2011-05-06T05:40:51.000Z</time>
      </trkpt>
      <trkpt lon="34.98444998636842" lat="32.129749953746796">
        <ele>147.1999969482422</ele>
        <time>2011-05-06T05:41:03.000Z</time>
      </trkpt>
      <trkpt lon="34.98460999689996" lat="32.129899989813566">
        <ele>145.39999389648438</ele>
        <time>2011-05-06T05:41:09.000Z</time>
      </trkpt>
      <trkpt lon="34.9847099930048" lat="32.13009998202324">
        <ele>143.0</ele>
        <time>2011-05-06T05:41:15.000Z</time>
      </trkpt>
      <trkpt lon="34.98471996746957" lat="32.13013996370137">
        <ele>142.60000610351562</ele>
        <time>2011-05-06T05:41:19.000Z</time>
      </trkpt>
      <trkpt lon="34.98469993472099" lat="32.13020995259285">
        <ele>142.0</ele>
        <time>2011-05-06T05:41:23.000Z</time>
      </trkpt>
      <trkpt lon="34.98466992750764" lat="32.130259992554784">
        <ele>142.0</ele>
        <time>2011-05-06T05:41:26.000Z</time>
      </trkpt>
      <trkpt lon="34.98473991639912" lat="32.13048999197781">
        <ele>138.8000030517578</ele>
        <time>2011-05-06T05:41:35.000Z</time>
      </trkpt>
      <trkpt lon="34.98472994193435" lat="32.130609937012196">
        <ele>137.8000030517578</ele>
        <time>2011-05-06T05:41:39.000Z</time>
      </trkpt>
      <trkpt lon="34.98473991639912" lat="32.13093993254006">
        <ele>134.39999389648438</ele>
        <time>2011-05-06T05:41:49.000Z</time>
      </trkpt>
      <trkpt lon="34.984809989109635" lat="32.13110991753638">
        <ele>132.1999969482422</ele>
        <time>2011-05-06T05:41:55.000Z</time>
      </trkpt>
      <trkpt lon="34.984849970787764" lat="32.13114998303354">
        <ele>131.60000610351562</ele>
        <time>2011-05-06T05:41:58.000Z</time>
      </trkpt>
      <trkpt lon="34.98485994525254" lat="32.131209997460246">
        <ele>131.1999969482422</ele>
        <time>2011-05-06T05:42:00.000Z</time>
      </trkpt>
      <trkpt lon="34.984899926930666" lat="32.13141996413469">
        <ele>129.39999389648438</ele>
        <time>2011-05-06T05:42:06.000Z</time>
      </trkpt>
      <trkpt lon="34.984939992427826" lat="32.13156991638243">
        <ele>128.39999389648438</ele>
        <time>2011-05-06T05:42:16.000Z</time>
      </trkpt>
      <trkpt lon="34.98488995246589" lat="32.13156991638243">
        <ele>128.60000610351562</ele>
        <time>2011-05-06T05:42:30.000Z</time>
      </trkpt>
      <trkpt lon="34.984899926930666" lat="32.131549967452884">
        <ele>128.60000610351562</ele>
        <time>2011-05-06T05:42:48.000Z</time>
      </trkpt>
      <trkpt lon="34.98488995246589" lat="32.13153999298811">
        <ele>128.8000030517578</ele>
        <time>2011-05-06T05:44:27.000Z</time>
      </trkpt>
      <trkpt lon="34.984919959679246" lat="32.13153999298811">
        <ele>128.60000610351562</ele>
        <time>2011-05-06T05:44:35.000Z</time>
      </trkpt>
      <trkpt lon="34.9849499668926" lat="32.131599923595786">
        <ele>128.1999969482422</ele>
        <time>2011-05-06T05:44:39.000Z</time>
      </trkpt>
      <trkpt lon="34.984979974105954" lat="32.13184995576739">
        <ele>128.8000030517578</ele>
        <time>2011-05-06T05:44:50.000Z</time>
      </trkpt>
      <trkpt lon="34.98481996357441" lat="32.13194995187223">
        <ele>128.39999389648438</ele>
        <time>2011-05-06T05:44:56.000Z</time>
      </trkpt>
      <trkpt lon="34.98472994193435" lat="32.132049947977066">
        <ele>128.0</ele>
        <time>2011-05-06T05:45:00.000Z</time>
      </trkpt>
      <trkpt lon="34.984809989109635" lat="32.132099987939">
        <ele>128.60000610351562</ele>
        <time>2011-05-06T05:45:08.000Z</time>
      </trkpt>
      <trkpt lon="34.984979974105954" lat="32.132049947977066">
        <ele>129.60000610351562</ele>
        <time>2011-05-06T05:45:18.000Z</time>
      </trkpt>
      <trkpt lon="34.98519999906421" lat="32.13186998851597">
        <ele>130.1999969482422</ele>
        <time>2011-05-06T05:45:32.000Z</time>
      </trkpt>
      <trkpt lon="34.98531994409859" lat="32.13181994855404">
        <ele>130.8000030517578</ele>
        <time>2011-05-06T05:45:38.000Z</time>
      </trkpt>
      <trkpt lon="34.98547995463014" lat="32.13164996355772">
        <ele>130.8000030517578</ele>
        <time>2011-05-06T05:45:50.000Z</time>
      </trkpt>
      <trkpt lon="34.98559998348355" lat="32.13155994191766">
        <ele>131.60000610351562</ele>
        <time>2011-05-06T05:45:58.000Z</time>
      </trkpt>
      <trkpt lon="34.98570995405316" lat="32.13151996023953">
        <ele>132.1999969482422</ele>
        <time>2011-05-06T05:46:04.000Z</time>
      </trkpt>
      <trkpt lon="34.98600994236767" lat="32.13145994581282">
        <ele>132.60000610351562</ele>
        <time>2011-05-06T05:46:19.000Z</time>
      </trkpt>
      <trkpt lon="34.98610993847251" lat="32.13144997134805">
        <ele>132.60000610351562</ele>
        <time>2011-05-06T05:46:24.000Z</time>
      </trkpt>
      <trkpt lon="34.9862399417907" lat="32.131509985774755">
        <ele>132.60000610351562</ele>
        <time>2011-05-06T05:46:34.000Z</time>
      </trkpt>
      <trkpt lon="34.986209934577346" lat="32.131599923595786">
        <ele>132.60000610351562</ele>
        <time>2011-05-06T05:46:44.000Z</time>
      </trkpt>
      <trkpt lon="34.98610993847251" lat="32.131659938022494">
        <ele>132.60000610351562</ele>
        <time>2011-05-06T05:46:51.000Z</time>
      </trkpt>
      <trkpt lon="34.986079931259155" lat="32.13172992691398">
        <ele>133.0</ele>
        <time>2011-05-06T05:46:57.000Z</time>
      </trkpt>
      <trkpt lon="34.98600994236767" lat="32.13181994855404">
        <ele>133.8000030517578</ele>
        <time>2011-05-06T05:47:04.000Z</time>
      </trkpt>
      <trkpt lon="34.98595998622477" lat="32.13187996298075">
        <ele>134.1999969482422</ele>
        <time>2011-05-06T05:47:10.000Z</time>
      </trkpt>
      <trkpt lon="34.986099964007735" lat="32.13183998130262">
        <ele>133.60000610351562</ele>
        <time>2011-05-06T05:47:21.000Z</time>
      </trkpt>
      <trkpt lon="34.9861899856478" lat="32.13186998851597">
        <ele>133.39999389648438</ele>
        <time>2011-05-06T05:47:33.000Z</time>
      </trkpt>
      <trkpt lon="34.9862399417907" lat="32.13187996298075">
        <ele>133.39999389648438</ele>
        <time>2011-05-06T05:47:49.000Z</time>
      </trkpt>
      <trkpt lon="34.98643993400037" lat="32.13196998462081">
        <ele>132.8000030517578</ele>
        <time>2011-05-06T05:48:00.000Z</time>
      </trkpt>
      <trkpt lon="34.98659994453192" lat="32.13222999125719">
        <ele>132.39999389648438</ele>
        <time>2011-05-06T05:48:11.000Z</time>
      </trkpt>
      <trkpt lon="34.98668996617198" lat="32.13237994350493">
        <ele>131.60000610351562</ele>
        <time>2011-05-06T05:48:16.000Z</time>
      </trkpt>
      <trkpt lon="34.9866699334234" lat="32.132429983466864">
        <ele>131.8000030517578</ele>
        <time>2011-05-06T05:48:26.000Z</time>
      </trkpt>
      <trkpt lon="34.98664998449385" lat="32.13245999068022">
        <ele>132.0</ele>
        <time>2011-05-06T05:48:36.000Z</time>
      </trkpt>
      <trkpt lon="34.986549988389015" lat="32.13254992850125">
        <ele>133.39999389648438</ele>
        <time>2011-05-06T05:48:44.000Z</time>
      </trkpt>
      <trkpt lon="34.98653993010521" lat="32.13262997567654">
        <ele>133.8000030517578</ele>
        <time>2011-05-06T05:48:48.000Z</time>
      </trkpt>
      <trkpt lon="34.98647999949753" lat="32.132689990103245">
        <ele>134.8000030517578</ele>
        <time>2011-05-06T05:48:56.000Z</time>
      </trkpt>
      <trkpt lon="34.98647999949753" lat="32.13287992402911">
        <ele>135.8000030517578</ele>
        <time>2011-05-06T05:49:07.000Z</time>
      </trkpt>
      <trkpt lon="34.98660991899669" lat="32.13306994177401">
        <ele>135.8000030517578</ele>
        <time>2011-05-06T05:49:19.000Z</time>
      </trkpt>
      <trkpt lon="34.98660991899669" lat="32.133099948987365">
        <ele>136.0</ele>
        <time>2011-05-06T05:49:21.000Z</time>
      </trkpt>
      <trkpt lon="34.98659994453192" lat="32.133099948987365">
        <ele>136.0</ele>
        <time>2011-05-06T05:49:22.000Z</time>
      </trkpt>
      <trkpt lon="34.98638997785747" lat="32.13299995288253">
        <ele>137.1999969482422</ele>
        <time>2011-05-06T05:49:35.000Z</time>
      </trkpt>
      <trkpt lon="34.98610993847251" lat="32.13288998231292">
        <ele>139.0</ele>
        <time>2011-05-06T05:49:50.000Z</time>
      </trkpt>
      <trkpt lon="34.98601991683245" lat="32.13284991681576">
        <ele>139.60000610351562</ele>
        <time>2011-05-06T05:49:56.000Z</time>
      </trkpt>
      <trkpt lon="34.98591992072761" lat="32.13284991681576">
        <ele>140.39999389648438</ele>
        <time>2011-05-06T05:50:02.000Z</time>
      </trkpt>
      <trkpt lon="34.98587993904948" lat="32.13282996788621">
        <ele>140.60000610351562</ele>
        <time>2011-05-06T05:50:05.000Z</time>
      </trkpt>
      <trkpt lon="34.98578991740942" lat="32.13270993903279">
        <ele>140.1999969482422</ele>
        <time>2011-05-06T05:50:13.000Z</time>
      </trkpt>
      <trkpt lon="34.985669972375035" lat="32.132779927924275">
        <ele>139.39999389648438</ele>
        <time>2011-05-06T05:50:21.000Z</time>
      </trkpt>
      <trkpt lon="34.98548992909491" lat="32.132969945669174">
        <ele>138.8000030517578</ele>
        <time>2011-05-06T05:50:34.000Z</time>
      </trkpt>
      <trkpt lon="34.98545992188156" lat="32.13293993845582">
        <ele>138.39999389648438</ele>
        <time>2011-05-06T05:50:56.000Z</time>
      </trkpt>
      <trkpt lon="34.98541994020343" lat="32.132949996739626">
        <ele>138.0</ele>
        <time>2011-05-06T05:51:54.000Z</time>
      </trkpt>
      <trkpt lon="34.9853799585253" lat="32.1329599712044">
        <ele>137.8000030517578</ele>
        <time>2011-05-06T05:51:59.000Z</time>
      </trkpt>
      <trkpt lon="34.98530996963382" lat="32.13302996009588">
        <ele>137.60000610351562</ele>
        <time>2011-05-06T05:52:14.000Z</time>
      </trkpt>
      <trkpt lon="34.98543997295201" lat="32.13303993456066">
        <ele>138.60000610351562</ele>
        <time>2011-05-06T05:52:32.000Z</time>
      </trkpt>
      <trkpt lon="34.98545992188156" lat="32.1330099273473">
        <ele>138.60000610351562</ele>
        <time>2011-05-06T05:52:48.000Z</time>
      </trkpt>
      <trkpt lon="34.98547995463014" lat="32.13297992013395">
        <ele>138.8000030517578</ele>
        <time>2011-05-06T05:53:01.000Z</time>
      </trkpt>
      <trkpt lon="34.98545992188156" lat="32.13297992013395">
        <ele>138.60000610351562</ele>
        <time>2011-05-06T05:53:44.000Z</time>
      </trkpt>
      <trkpt lon="34.98546998016536" lat="32.132969945669174">
        <ele>138.60000610351562</ele>
        <time>2011-05-06T05:54:26.000Z</time>
      </trkpt>
      <trkpt lon="34.985429998487234" lat="32.132989978417754">
        <ele>138.39999389648438</ele>
        <time>2011-05-06T05:55:04.000Z</time>
      </trkpt>
      <trkpt lon="34.98552999459207" lat="32.133079916238785">
        <ele>139.60000610351562</ele>
        <time>2011-05-06T05:55:16.000Z</time>
      </trkpt>
      <trkpt lon="34.98567994683981" lat="32.133229952305555">
        <ele>141.39999389648438</ele>
        <time>2011-05-06T05:55:28.000Z</time>
      </trkpt>
      <trkpt lon="34.98560995794833" lat="32.133529940620065">
        <ele>140.39999389648438</ele>
        <time>2011-05-06T05:55:36.000Z</time>
      </trkpt>
      <trkpt lon="34.98544994741678" lat="32.13360998779535">
        <ele>138.8000030517578</ele>
        <time>2011-05-06T05:55:41.000Z</time>
      </trkpt>
      <trkpt lon="34.985349951311946" lat="32.133659943938255">
        <ele>137.8000030517578</ele>
        <time>2011-05-06T05:55:57.000Z</time>
      </trkpt>
      <trkpt lon="34.985279962420464" lat="32.13366991840303">
        <ele>137.1999969482422</ele>
        <time>2011-05-06T05:56:11.000Z</time>
      </trkpt>
      <trkpt lon="34.98524995520711" lat="32.133679976686835">
        <ele>136.8000030517578</ele>
        <time>2011-05-06T05:56:34.000Z</time>
      </trkpt>
      <trkpt lon="34.985239980742335" lat="32.13366991840303">
        <ele>136.8000030517578</ele>
        <time>2011-05-06T05:56:56.000Z</time>
      </trkpt>
      <trkpt lon="34.98524995520711" lat="32.133679976686835">
        <ele>136.8000030517578</ele>
        <time>2011-05-06T05:57:16.000Z</time>
      </trkpt>
      <trkpt lon="34.985259929671884" lat="32.13368995115161">
        <ele>136.8000030517578</ele>
        <time>2011-05-06T05:57:38.000Z</time>
      </trkpt>
      <trkpt lon="34.98528993688524" lat="32.13366991840303">
        <ele>137.1999969482422</ele>
        <time>2011-05-06T05:57:54.000Z</time>
      </trkpt>
      <trkpt lon="34.98529999516904" lat="32.133679976686835">
        <ele>137.1999969482422</ele>
        <time>2011-05-06T05:58:11.000Z</time>
      </trkpt>
      <trkpt lon="34.98526998795569" lat="32.133659943938255">
        <ele>137.1999969482422</ele>
        <time>2011-05-06T05:58:36.000Z</time>
      </trkpt>
      <trkpt lon="34.98526998795569" lat="32.13363999500871">
        <ele>137.1999969482422</ele>
        <time>2011-05-06T05:59:18.000Z</time>
      </trkpt>
      <trkpt lon="34.98526998795569" lat="32.13361996226013">
        <ele>137.39999389648438</ele>
        <time>2011-05-06T06:00:03.000Z</time>
      </trkpt>
      <trkpt lon="34.98529999516904" lat="32.13361996226013">
        <ele>137.60000610351562</ele>
        <time>2011-05-06T06:01:26.000Z</time>
      </trkpt>
      <trkpt lon="34.98526998795569" lat="32.13364996947348">
        <ele>137.1999969482422</ele>
        <time>2011-05-06T06:01:39.000Z</time>
      </trkpt>
      <trkpt lon="34.985259929671884" lat="32.133659943938255">
        <ele>137.0</ele>
        <time>2011-05-06T06:01:40.000Z</time>
      </trkpt>
      <trkpt lon="34.98522992245853" lat="32.13368995115161">
        <ele>136.60000610351562</ele>
        <time>2011-05-06T06:01:43.000Z</time>
      </trkpt>
      <trkpt lon="34.9851899407804" lat="32.13375994004309">
        <ele>136.0</ele>
        <time>2011-05-06T06:01:48.000Z</time>
      </trkpt>
      <trkpt lon="34.98515993356705" lat="32.133789947256446">
        <ele>135.60000610351562</ele>
        <time>2011-05-06T06:01:50.000Z</time>
      </trkpt>
      <trkpt lon="34.985109977424145" lat="32.13396999053657">
        <ele>134.0</ele>
        <time>2011-05-06T06:01:58.000Z</time>
      </trkpt>
      <trkpt lon="34.98498994857073" lat="32.13403997942805">
        <ele>132.60000610351562</ele>
        <time>2011-05-06T06:02:03.000Z</time>
      </trkpt>
      <trkpt lon="34.98496999964118" lat="32.13404995389283">
        <ele>132.1999969482422</ele>
        <time>2011-05-06T06:02:04.000Z</time>
      </trkpt>
      <trkpt lon="34.984939992427826" lat="32.1340599283576">
        <ele>131.8000030517578</ele>
        <time>2011-05-06T06:02:05.000Z</time>
      </trkpt>
      <trkpt lon="34.984899926930666" lat="32.13415992446244">
        <ele>130.60000610351562</ele>
        <time>2011-05-06T06:02:11.000Z</time>
      </trkpt>
      <trkpt lon="34.98479993082583" lat="32.134219938889146">
        <ele>128.39999389648438</ele>
        <time>2011-05-06T06:02:18.000Z</time>
      </trkpt>
      <trkpt lon="34.98468996025622" lat="32.134109968319535">
        <ele>128.0</ele>
        <time>2011-05-06T06:02:23.000Z</time>
      </trkpt>
      <trkpt lon="34.98457998968661" lat="32.1340599283576">
        <ele>126.80000305175781</ele>
        <time>2011-05-06T06:02:27.000Z</time>
      </trkpt>
      <trkpt lon="34.98447999358177" lat="32.134089935570955">
        <ele>125.19999694824219</ele>
        <time>2011-05-06T06:02:38.000Z</time>
      </trkpt>
      <trkpt lon="34.984469935297966" lat="32.134089935570955">
        <ele>125.19999694824219</ele>
        <time>2011-05-06T06:02:54.000Z</time>
      </trkpt>
      <trkpt lon="34.98445996083319" lat="32.134089935570955">
        <ele>125.0</ele>
        <time>2011-05-06T06:03:15.000Z</time>
      </trkpt>
      <trkpt lon="34.984489968046546" lat="32.13409999385476">
        <ele>125.4000015258789</ele>
        <time>2011-05-06T06:03:29.000Z</time>
      </trkpt>
      <trkpt lon="34.984469935297966" lat="32.134109968319535">
        <ele>125.0</ele>
        <time>2011-05-06T06:03:57.000Z</time>
      </trkpt>
      <trkpt lon="34.98447999358177" lat="32.13411994278431">
        <ele>125.19999694824219</ele>
        <time>2011-05-06T06:04:14.000Z</time>
      </trkpt>
      <trkpt lon="34.98445996083319" lat="32.134109968319535">
        <ele>125.0</ele>
        <time>2011-05-06T06:05:21.000Z</time>
      </trkpt>
      <trkpt lon="34.98442995361984" lat="32.13409999385476">
        <ele>124.5999984741211</ele>
        <time>2011-05-06T06:05:42.000Z</time>
      </trkpt>
      <trkpt lon="34.984379997476935" lat="32.134089935570955">
        <ele>124.0</ele>
        <time>2011-05-06T06:05:50.000Z</time>
      </trkpt>
      <trkpt lon="34.98438997194171" lat="32.13413997553289">
        <ele>124.0</ele>
        <time>2011-05-06T06:06:06.000Z</time>
      </trkpt>
      <trkpt lon="34.984399946406484" lat="32.13413997553289">
        <ele>124.0</ele>
        <time>2011-05-06T06:06:43.000Z</time>
      </trkpt>
      <trkpt lon="34.984399946406484" lat="32.13433996774256">
        <ele>121.80000305175781</ele>
        <time>2011-05-06T06:06:49.000Z</time>
      </trkpt>
      <trkpt lon="34.98434999026358" lat="32.134669963270426">
        <ele>117.19999694824219</ele>
        <time>2011-05-06T06:06:59.000Z</time>
      </trkpt>
      <trkpt lon="34.98428997583687" lat="32.13476995937526">
        <ele>115.80000305175781</ele>
        <time>2011-05-06T06:07:03.000Z</time>
      </trkpt>
      <trkpt lon="34.98431998305023" lat="32.13499995879829">
        <ele>113.19999694824219</ele>
        <time>2011-05-06T06:07:13.000Z</time>
      </trkpt>
      <trkpt lon="34.98429995030165" lat="32.13502996601164">
        <ele>112.80000305175781</ele>
        <time>2011-05-06T06:07:15.000Z</time>
      </trkpt>
      <trkpt lon="34.98426994308829" lat="32.13508998043835">
        <ele>111.80000305175781</ele>
        <time>2011-05-06T06:07:24.000Z</time>
      </trkpt>
      <trkpt lon="34.98442995361984" lat="32.13527999818325">
        <ele>108.80000305175781</ele>
        <time>2011-05-06T06:07:33.000Z</time>
      </trkpt>
      <trkpt lon="34.984549982473254" lat="32.13538996875286">
        <ele>106.80000305175781</ele>
        <time>2011-05-06T06:07:37.000Z</time>
      </trkpt>
      <trkpt lon="34.98459993861616" lat="32.13549993932247">
        <ele>104.5999984741211</ele>
        <time>2011-05-06T06:07:40.000Z</time>
      </trkpt>
      <trkpt lon="34.984849970787764" lat="32.135699931532145">
        <ele>99.19999694824219</ele>
        <time>2011-05-06T06:07:48.000Z</time>
      </trkpt>
      <trkpt lon="34.984939992427826" lat="32.13574997149408">
        <ele>97.4000015258789</ele>
        <time>2011-05-06T06:07:50.000Z</time>
      </trkpt>
      <trkpt lon="34.98517996631563" lat="32.13583999313414">
        <ele>94.80000305175781</ele>
        <time>2011-05-06T06:07:55.000Z</time>
      </trkpt>
      <trkpt lon="34.98522992245853" lat="32.13585994206369">
        <ele>94.5999984741211</ele>
        <time>2011-05-06T06:07:56.000Z</time>
      </trkpt>
      <trkpt lon="34.9853799585253" lat="32.13590998202562">
        <ele>93.80000305175781</ele>
        <time>2011-05-06T06:07:59.000Z</time>
      </trkpt>
      <trkpt lon="34.985519936308265" lat="32.1359199564904">
        <ele>93.5999984741211</ele>
        <time>2011-05-06T06:08:02.000Z</time>
      </trkpt>
      <trkpt lon="34.985649939626455" lat="32.13593998923898">
        <ele>93.0</ele>
        <time>2011-05-06T06:08:06.000Z</time>
      </trkpt>
      <trkpt lon="34.985839957371354" lat="32.135999919846654">
        <ele>91.5999984741211</ele>
        <time>2011-05-06T06:08:10.000Z</time>
      </trkpt>
      <trkpt lon="34.986079931259155" lat="32.13600997813046">
        <ele>90.19999694824219</ele>
        <time>2011-05-06T06:08:14.000Z</time>
      </trkpt>
      <trkpt lon="34.986229967325926" lat="32.135979970917106">
        <ele>90.0</ele>
        <time>2011-05-06T06:08:17.000Z</time>
      </trkpt>
      <trkpt lon="34.986359970644116" lat="32.13609999977052">
        <ele>87.4000015258789</ele>
        <time>2011-05-06T06:08:22.000Z</time>
      </trkpt>
      <trkpt lon="34.98659994453192" lat="32.13617996312678">
        <ele>85.19999694824219</ele>
        <time>2011-05-06T06:08:28.000Z</time>
      </trkpt>
      <trkpt lon="34.98691996559501" lat="32.13624995201826">
        <ele>83.19999694824219</ele>
        <time>2011-05-06T06:08:36.000Z</time>
      </trkpt>
      <trkpt lon="34.986959947273135" lat="32.136389929801226">
        <ele>81.4000015258789</ele>
        <time>2011-05-06T06:08:41.000Z</time>
      </trkpt>
      <trkpt lon="34.98688995838165" lat="32.136469976976514">
        <ele>80.5999984741211</ele>
        <time>2011-05-06T06:08:46.000Z</time>
      </trkpt>
      <trkpt lon="34.98675995506346" lat="32.136579947546124">
        <ele>79.19999694824219</ele>
        <time>2011-05-06T06:08:56.000Z</time>
      </trkpt>
      <trkpt lon="34.98674998059869" lat="32.1365899220109">
        <ele>79.0</ele>
        <time>2011-05-06T06:09:01.000Z</time>
      </trkpt>
      <trkpt lon="34.986699940636754" lat="32.13661992922425">
        <ele>78.5999984741211</ele>
        <time>2011-05-06T06:09:09.000Z</time>
      </trkpt>
      <trkpt lon="34.98659994453192" lat="32.13695998303592">
        <ele>76.19999694824219</ele>
        <time>2011-05-06T06:09:21.000Z</time>
      </trkpt>
      <trkpt lon="34.98658997006714" lat="32.13710993528366">
        <ele>75.4000015258789</ele>
        <time>2011-05-06T06:09:27.000Z</time>
      </trkpt>
      <trkpt lon="34.986639926210046" lat="32.137139942497015">
        <ele>75.0</ele>
        <time>2011-05-06T06:09:31.000Z</time>
      </trkpt>
      <trkpt lon="34.986699940636754" lat="32.13711999356747">
        <ele>75.19999694824219</ele>
        <time>2011-05-06T06:09:47.000Z</time>
      </trkpt>
      <trkpt lon="34.98670999892056" lat="32.13712996803224">
        <ele>75.19999694824219</ele>
        <time>2011-05-06T06:10:11.000Z</time>
      </trkpt>
      <trkpt lon="34.98662995174527" lat="32.13710993528366">
        <ele>75.19999694824219</ele>
        <time>2011-05-06T06:10:39.000Z</time>
      </trkpt>
      <trkpt lon="34.986659958958626" lat="32.13710993528366">
        <ele>75.19999694824219</ele>
        <time>2011-05-06T06:11:24.000Z</time>
      </trkpt>
      <trkpt lon="34.98657999560237" lat="32.13712996803224">
        <ele>75.19999694824219</ele>
        <time>2011-05-06T06:11:50.000Z</time>
      </trkpt>
      <trkpt lon="34.98658997006714" lat="32.13712996803224">
        <ele>75.19999694824219</ele>
        <time>2011-05-06T06:12:17.000Z</time>
      </trkpt>
      <trkpt lon="34.98662995174527" lat="32.13711999356747">
        <ele>75.19999694824219</ele>
        <time>2011-05-06T06:12:52.000Z</time>
      </trkpt>
      <trkpt lon="34.986659958958626" lat="32.13710993528366">
        <ele>75.19999694824219</ele>
        <time>2011-05-06T06:13:31.000Z</time>
      </trkpt>
      <trkpt lon="34.986679991707206" lat="32.13709996081889">
        <ele>75.4000015258789</ele>
        <time>2011-05-06T06:14:12.000Z</time>
      </trkpt>
      <trkpt lon="34.98668996617198" lat="32.13711999356747">
        <ele>75.19999694824219</ele>
        <time>2011-05-06T06:15:35.000Z</time>
      </trkpt>
      <trkpt lon="34.98670999892056" lat="32.13719995692372">
        <ele>74.80000305175781</ele>
        <time>2011-05-06T06:16:13.000Z</time>
      </trkpt>
      <trkpt lon="34.98668996617198" lat="32.13718998245895">
        <ele>74.80000305175781</ele>
        <time>2011-05-06T06:17:03.000Z</time>
      </trkpt>
      <trkpt lon="34.986659958958626" lat="32.137139942497015">
        <ele>75.0</ele>
        <time>2011-05-06T06:18:12.000Z</time>
      </trkpt>
      <trkpt lon="34.98668996617198" lat="32.13712996803224">
        <ele>75.19999694824219</ele>
        <time>2011-05-06T06:18:47.000Z</time>
      </trkpt>
      <trkpt lon="34.986699940636754" lat="32.13711999356747">
        <ele>75.19999694824219</ele>
        <time>2011-05-06T06:19:12.000Z</time>
      </trkpt>
      <trkpt lon="34.98672994785011" lat="32.13711999356747">
        <ele>75.19999694824219</ele>
        <time>2011-05-06T06:20:20.000Z</time>
      </trkpt>
      <trkpt lon="34.986679991707206" lat="32.13712996803224">
        <ele>75.19999694824219</ele>
        <time>2011-05-06T06:20:37.000Z</time>
      </trkpt>
      <trkpt lon="34.9866199772805" lat="32.137139942497015">
        <ele>75.19999694824219</ele>
        <time>2011-05-06T06:20:44.000Z</time>
      </trkpt>
      <trkpt lon="34.986379919573665" lat="32.13714991696179">
        <ele>75.4000015258789</ele>
        <time>2011-05-06T06:21:00.000Z</time>
      </trkpt>
      <trkpt lon="34.98627992346883" lat="32.137159975245595">
        <ele>75.4000015258789</ele>
        <time>2011-05-06T06:21:08.000Z</time>
      </trkpt>
      <trkpt lon="34.98616995289922" lat="32.137139942497015">
        <ele>75.5999984741211</ele>
        <time>2011-05-06T06:21:16.000Z</time>
      </trkpt>
      <trkpt lon="34.98606995679438" lat="32.13688999414444">
        <ele>77.19999694824219</ele>
        <time>2011-05-06T06:21:36.000Z</time>
      </trkpt>
      <trkpt lon="34.98587993904948" lat="32.136689918115735">
        <ele>78.80000305175781</ele>
        <time>2011-05-06T06:21:52.000Z</time>
      </trkpt>
      <trkpt lon="34.985669972375035" lat="32.136519933119416">
        <ele>83.0</ele>
        <time>2011-05-06T06:22:08.000Z</time>
      </trkpt>
      <trkpt lon="34.98554994352162" lat="32.13643996976316">
        <ele>85.19999694824219</ele>
        <time>2011-05-06T06:22:17.000Z</time>
      </trkpt>
      <trkpt lon="34.985389932990074" lat="32.13636998087168">
        <ele>87.4000015258789</ele>
        <time>2011-05-06T06:22:28.000Z</time>
      </trkpt>
      <trkpt lon="34.9851899407804" lat="32.13626998476684">
        <ele>89.80000305175781</ele>
        <time>2011-05-06T06:22:43.000Z</time>
      </trkpt>
      <trkpt lon="34.98516999185085" lat="32.136259926483035">
        <ele>90.0</ele>
        <time>2011-05-06T06:22:48.000Z</time>
      </trkpt>
      <trkpt lon="34.985089944675565" lat="32.13618993759155">
        <ele>91.19999694824219</ele>
        <time>2011-05-06T06:22:55.000Z</time>
      </trkpt>
      <trkpt lon="34.98488995246589" lat="32.13596999645233">
        <ele>94.5999984741211</ele>
        <time>2011-05-06T06:23:15.000Z</time>
      </trkpt>
      <trkpt lon="34.98472994193435" lat="32.13587997481227">
        <ele>96.80000305175781</ele>
        <time>2011-05-06T06:23:27.000Z</time>
      </trkpt>
      <trkpt lon="34.98440992087126" lat="32.13596999645233">
        <ele>99.0</ele>
        <time>2011-05-06T06:23:44.000Z</time>
      </trkpt>
      <trkpt lon="34.98400993645191" lat="32.13609999977052">
        <ele>102.4000015258789</ele>
        <time>2011-05-06T06:24:05.000Z</time>
      </trkpt>
      <trkpt lon="34.9838999658823" lat="32.13609999977052">
        <ele>103.80000305175781</ele>
        <time>2011-05-06T06:24:11.000Z</time>
      </trkpt>
      <trkpt lon="34.98381991870701" lat="32.13581996038556">
        <ele>105.80000305175781</ele>
        <time>2011-05-06T06:24:27.000Z</time>
      </trkpt>
      <trkpt lon="34.98374992981553" lat="32.135529946535826">
        <ele>109.4000015258789</ele>
        <time>2011-05-06T06:24:44.000Z</time>
      </trkpt>
      <trkpt lon="34.9837099481374" lat="32.13521998375654">
        <ele>112.5999984741211</ele>
        <time>2011-05-06T06:24:57.000Z</time>
      </trkpt>
      <trkpt lon="34.98363995924592" lat="32.134779933840036">
        <ele>115.4000015258789</ele>
        <time>2011-05-06T06:25:16.000Z</time>
      </trkpt>
      <trkpt lon="34.98356997035444" lat="32.13446997106075">
        <ele>116.0</ele>
        <time>2011-05-06T06:25:33.000Z</time>
      </trkpt>
      <trkpt lon="34.9834699742496" lat="32.13426997885108">
        <ele>115.80000305175781</ele>
        <time>2011-05-06T06:25:49.000Z</time>
      </trkpt>
      <trkpt lon="34.98344994150102" lat="32.13416998274624">
        <ele>115.80000305175781</ele>
        <time>2011-05-06T06:26:04.000Z</time>
      </trkpt>
      <trkpt lon="34.98345999978483" lat="32.13417995721102">
        <ele>115.80000305175781</ele>
        <time>2011-05-06T06:26:47.000Z</time>
      </trkpt>
      <trkpt lon="34.98344994150102" lat="32.13417995721102">
        <ele>115.80000305175781</ele>
        <time>2011-05-06T06:28:17.000Z</time>
      </trkpt>
      <trkpt lon="34.98341993428767" lat="32.13414994999766">
        <ele>115.5999984741211</ele>
        <time>2011-05-06T06:28:54.000Z</time>
      </trkpt>
      <trkpt lon="34.98318993486464" lat="32.1338199544698">
        <ele>114.0</ele>
        <time>2011-05-06T06:29:13.000Z</time>
      </trkpt>
      <trkpt lon="34.983069989830256" lat="32.13361996226013">
        <ele>113.19999694824219</ele>
        <time>2011-05-06T06:29:27.000Z</time>
      </trkpt>
      <trkpt lon="34.98307996429503" lat="32.13356992229819">
        <ele>113.19999694824219</ele>
        <time>2011-05-06T06:29:43.000Z</time>
      </trkpt>
      <trkpt lon="34.98305993154645" lat="32.13356992229819">
        <ele>113.19999694824219</ele>
        <time>2011-05-06T06:29:47.000Z</time>
      </trkpt>
      <trkpt lon="34.982919953763485" lat="32.13350999169052">
        <ele>112.5999984741211</ele>
        <time>2011-05-06T06:29:54.000Z</time>
      </trkpt>
      <trkpt lon="34.982729936018586" lat="32.13327999226749">
        <ele>112.4000015258789</ele>
        <time>2011-05-06T06:30:11.000Z</time>
      </trkpt>
      <trkpt lon="34.982599932700396" lat="32.13310992345214">
        <ele>115.0</ele>
        <time>2011-05-06T06:30:26.000Z</time>
      </trkpt>
      <trkpt lon="34.98258995823562" lat="32.13308997452259">
        <ele>115.19999694824219</ele>
        <time>2011-05-06T06:30:27.000Z</time>
      </trkpt>
      <trkpt lon="34.98245995491743" lat="32.132949996739626">
        <ele>118.0</ele>
        <time>2011-05-06T06:30:41.000Z</time>
      </trkpt>
      <trkpt lon="34.98242994770408" lat="32.13288998231292">
        <ele>119.4000015258789</ele>
        <time>2011-05-06T06:30:47.000Z</time>
      </trkpt>
      <trkpt lon="34.9824199732393" lat="32.13287992402911">
        <ele>119.5999984741211</ele>
        <time>2011-05-06T06:30:57.000Z</time>
      </trkpt>
      <trkpt lon="34.9824199732393" lat="32.13287992402911">
        <ele>119.5999984741211</ele>
        <time>2011-05-06T06:31:11.000Z</time>
      </trkpt>
      <trkpt lon="34.98242994770408" lat="32.13288998231292">
        <ele>119.4000015258789</ele>
        <time>2011-05-06T06:31:13.000Z</time>
      </trkpt>
      <trkpt lon="34.98242994770408" lat="32.13288998231292">
        <ele>119.4000015258789</ele>
        <time>2011-05-06T06:31:29.000Z</time>
      </trkpt>
      <trkpt lon="34.9824199732393" lat="32.13288998231292">
        <ele>119.4000015258789</ele>
        <time>2011-05-06T06:32:05.000Z</time>
      </trkpt>
      <trkpt lon="34.982489962130785" lat="32.132969945669174">
        <ele>117.5999984741211</ele>
        <time>2011-05-06T06:32:22.000Z</time>
      </trkpt>
      <trkpt lon="34.98252994380891" lat="32.13301998563111">
        <ele>116.4000015258789</ele>
        <time>2011-05-06T06:32:24.000Z</time>
      </trkpt>
      <trkpt lon="34.98264997266233" lat="32.13316993787885">
        <ele>114.0</ele>
        <time>2011-05-06T06:32:30.000Z</time>
      </trkpt>
      <trkpt lon="34.982939986512065" lat="32.13346992619336">
        <ele>112.5999984741211</ele>
        <time>2011-05-06T06:32:42.000Z</time>
      </trkpt>
      <trkpt lon="34.98299991711974" lat="32.133579980582">
        <ele>113.0</ele>
        <time>2011-05-06T06:32:48.000Z</time>
      </trkpt>
      <trkpt lon="34.98311994597316" lat="32.133579980582">
        <ele>113.4000015258789</ele>
        <time>2011-05-06T06:32:59.000Z</time>
      </trkpt>
      <trkpt lon="34.98324994929135" lat="32.133419970050454">
        <ele>113.80000305175781</ele>
        <time>2011-05-06T06:33:19.000Z</time>
      </trkpt>
      <trkpt lon="34.98329998925328" lat="32.1333899628371">
        <ele>113.80000305175781</ele>
        <time>2011-05-06T06:33:26.000Z</time>
      </trkpt>
      <trkpt lon="34.98330996371806" lat="32.13340999558568">
        <ele>114.0</ele>
        <time>2011-05-06T06:33:28.000Z</time>
      </trkpt>
      <trkpt lon="34.983199993148446" lat="32.13345995172858">
        <ele>113.5999984741211</ele>
        <time>2011-05-06T06:33:38.000Z</time>
      </trkpt>
      <trkpt lon="34.983069989830256" lat="32.13363999500871">
        <ele>113.4000015258789</ele>
        <time>2011-05-06T06:33:55.000Z</time>
      </trkpt>
      <trkpt lon="34.98305993154645" lat="32.13366991840303">
        <ele>113.4000015258789</ele>
        <time>2011-05-06T06:33:58.000Z</time>
      </trkpt>
      <trkpt lon="34.9830399826169" lat="32.13358995504677">
        <ele>113.19999694824219</ele>
        <time>2011-05-06T06:34:09.000Z</time>
      </trkpt>
      <trkpt lon="34.98305993154645" lat="32.13356992229819">
        <ele>113.19999694824219</ele>
        <time>2011-05-06T06:34:12.000Z</time>
      </trkpt>
      <trkpt lon="34.983089938759804" lat="32.13356992229819">
        <ele>113.4000015258789</ele>
        <time>2011-05-06T06:34:14.000Z</time>
      </trkpt>
      <trkpt lon="34.982939986512065" lat="32.133679976686835">
        <ele>112.80000305175781</ele>
        <time>2011-05-06T06:34:26.000Z</time>
      </trkpt>
      <trkpt lon="34.982599932700396" lat="32.13389991782606">
        <ele>112.0</ele>
        <time>2011-05-06T06:34:38.000Z</time>
      </trkpt>
      <trkpt lon="34.98252994380891" lat="32.13411994278431">
        <ele>112.0</ele>
        <time>2011-05-06T06:34:51.000Z</time>
      </trkpt>
      <trkpt lon="34.98238996602595" lat="32.13428992778063">
        <ele>112.5999984741211</ele>
        <time>2011-05-06T06:35:04.000Z</time>
      </trkpt>
      <trkpt lon="34.98225996270776" lat="32.13447994552553">
        <ele>114.0</ele>
        <time>2011-05-06T06:35:20.000Z</time>
      </trkpt>
      <trkpt lon="34.98196994885802" lat="32.13461992330849">
        <ele>113.80000305175781</ele>
        <time>2011-05-06T06:35:37.000Z</time>
      </trkpt>
      <trkpt lon="34.981629978865385" lat="32.13478999212384">
        <ele>113.80000305175781</ele>
        <time>2011-05-06T06:35:52.000Z</time>
      </trkpt>
      <trkpt lon="34.98122999444604" lat="32.13495997712016">
        <ele>110.5999984741211</ele>
        <time>2011-05-06T06:36:06.000Z</time>
      </trkpt>
      <trkpt lon="34.98125991784036" lat="32.13503994047642">
        <ele>111.80000305175781</ele>
        <time>2011-05-06T06:36:10.000Z</time>
      </trkpt>
      <trkpt lon="34.981329990550876" lat="32.135099954903126">
        <ele>113.0</ele>
        <time>2011-05-06T06:36:14.000Z</time>
      </trkpt>
      <trkpt lon="34.98151992447674" lat="32.135289972648025">
        <ele>116.4000015258789</ele>
        <time>2011-05-06T06:36:29.000Z</time>
      </trkpt>
      <trkpt lon="34.98164992779493" lat="32.13546993210912">
        <ele>118.80000305175781</ele>
        <time>2011-05-06T06:36:43.000Z</time>
      </trkpt>
      <trkpt lon="34.98178998939693" lat="32.13557998649776">
        <ele>119.80000305175781</ele>
        <time>2011-05-06T06:36:56.000Z</time>
      </trkpt>
      <trkpt lon="34.98185997828841" lat="32.135659949854016">
        <ele>120.0</ele>
        <time>2011-05-06T06:37:11.000Z</time>
      </trkpt>
      <trkpt lon="34.98185997828841" lat="32.135659949854016">
        <ele>120.0</ele>
        <time>2011-05-06T06:37:31.000Z</time>
      </trkpt>
      <trkpt lon="34.981849920004606" lat="32.13564997538924">
        <ele>120.0</ele>
        <time>2011-05-06T06:37:52.000Z</time>
      </trkpt>
      <trkpt lon="34.98185997828841" lat="32.135659949854016">
        <ele>120.0</ele>
        <time>2011-05-06T06:38:06.000Z</time>
      </trkpt>
      <trkpt lon="34.981869952753186" lat="32.135639917105436">
        <ele>120.0</ele>
        <time>2011-05-06T06:38:53.000Z</time>
      </trkpt>
      <trkpt lon="34.98183994553983" lat="32.135639917105436">
        <ele>120.0</ele>
        <time>2011-05-06T06:40:22.000Z</time>
      </trkpt>
      <trkpt lon="34.98182997107506" lat="32.135659949854016">
        <ele>120.0</ele>
        <time>2011-05-06T06:40:31.000Z</time>
      </trkpt>
      <trkpt lon="34.98185997828841" lat="32.13568995706737">
        <ele>120.19999694824219</ele>
        <time>2011-05-06T06:40:35.000Z</time>
      </trkpt>
      <trkpt lon="34.981909934431314" lat="32.135699931532145">
        <ele>120.4000015258789</ele>
        <time>2011-05-06T06:40:38.000Z</time>
      </trkpt>
      <trkpt lon="34.98210992664099" lat="32.135849967598915">
        <ele>121.0</ele>
        <time>2011-05-06T06:40:49.000Z</time>
      </trkpt>
      <trkpt lon="34.982229955494404" lat="32.13600997813046">
        <ele>120.5999984741211</ele>
        <time>2011-05-06T06:41:01.000Z</time>
      </trkpt>
      <trkpt lon="34.982229955494404" lat="32.13600997813046">
        <ele>120.5999984741211</ele>
        <time>2011-05-06T06:41:16.000Z</time>
      </trkpt>
      <trkpt lon="34.982229955494404" lat="32.13602992706001">
        <ele>120.5999984741211</ele>
        <time>2011-05-06T06:41:23.000Z</time>
      </trkpt>
      <trkpt lon="34.982359958812594" lat="32.13621994480491">
        <ele>120.19999694824219</ele>
        <time>2011-05-06T06:41:34.000Z</time>
      </trkpt>
      <trkpt lon="34.982469929382205" lat="32.13626998476684">
        <ele>120.19999694824219</ele>
        <time>2011-05-06T06:41:38.000Z</time>
      </trkpt>
      <trkpt lon="34.982679979875684" lat="32.13623997755349">
        <ele>118.19999694824219</ele>
        <time>2011-05-06T06:41:43.000Z</time>
      </trkpt>
      <trkpt lon="34.98295993544161" lat="32.136389929801226">
        <ele>114.5999984741211</ele>
        <time>2011-05-06T06:41:54.000Z</time>
      </trkpt>
      <trkpt lon="34.98295993544161" lat="32.136389929801226">
        <ele>114.5999984741211</ele>
        <time>2011-05-06T06:41:55.000Z</time>
      </trkpt>
      <trkpt lon="34.98295993544161" lat="32.136389929801226">
        <ele>114.5999984741211</ele>
        <time>2011-05-06T06:43:00.000Z</time>
      </trkpt>
      <trkpt lon="34.98297996819019" lat="32.136429995298386">
        <ele>114.19999694824219</ele>
        <time>2011-05-06T06:44:12.000Z</time>
      </trkpt>
      <trkpt lon="34.98300997540355" lat="32.136449944227934">
        <ele>113.80000305175781</ele>
        <time>2011-05-06T06:44:14.000Z</time>
      </trkpt>
      <trkpt lon="34.983089938759804" lat="32.13643996976316">
        <ele>113.0</ele>
        <time>2011-05-06T06:44:19.000Z</time>
      </trkpt>
      <trkpt lon="34.98328993096948" lat="32.136449944227934">
        <ele>110.5999984741211</ele>
        <time>2011-05-06T06:44:30.000Z</time>
      </trkpt>
      <trkpt lon="34.98338992707431" lat="32.13636998087168">
        <ele>109.5999984741211</ele>
        <time>2011-05-06T06:44:36.000Z</time>
      </trkpt>
      <trkpt lon="34.98344994150102" lat="32.13636998087168">
        <ele>108.80000305175781</ele>
        <time>2011-05-06T06:44:38.000Z</time>
      </trkpt>
      <trkpt lon="34.98350995592773" lat="32.136299991980195">
        <ele>108.0</ele>
        <time>2011-05-06T06:44:42.000Z</time>
      </trkpt>
      <trkpt lon="34.98350995592773" lat="32.13624995201826">
        <ele>108.19999694824219</ele>
        <time>2011-05-06T06:44:44.000Z</time>
      </trkpt>
      <trkpt lon="34.98371992260218" lat="32.13619999587536">
        <ele>105.5999984741211</ele>
        <time>2011-05-06T06:44:52.000Z</time>
      </trkpt>
      <trkpt lon="34.9838999658823" lat="32.13618993759155">
        <ele>103.4000015258789</ele>
        <time>2011-05-06T06:45:00.000Z</time>
      </trkpt>
      <trkpt lon="34.98393994756043" lat="32.136169988662004">
        <ele>103.0</ele>
        <time>2011-05-06T06:45:02.000Z</time>
      </trkpt>
      <trkpt lon="34.983929973095655" lat="32.136109974235296">
        <ele>103.4000015258789</ele>
        <time>2011-05-06T06:45:12.000Z</time>
      </trkpt>
      <trkpt lon="34.9838999658823" lat="32.13606999255717">
        <ele>104.0</ele>
        <time>2011-05-06T06:45:26.000Z</time>
      </trkpt>
      <trkpt lon="34.9838999658823" lat="32.13604995980859">
        <ele>104.0</ele>
        <time>2011-05-06T06:45:44.000Z</time>
      </trkpt>
      <trkpt lon="34.98381991870701" lat="32.13590998202562">
        <ele>105.4000015258789</ele>
        <time>2011-05-06T06:45:54.000Z</time>
      </trkpt>
      <trkpt lon="34.983669966459274" lat="32.13589992374182">
        <ele>107.0</ele>
        <time>2011-05-06T06:46:02.000Z</time>
      </trkpt>
      <trkpt lon="34.98345999978483" lat="32.13594996370375">
        <ele>109.4000015258789</ele>
        <time>2011-05-06T06:46:18.000Z</time>
      </trkpt>
      <trkpt lon="34.98340995982289" lat="32.13593998923898">
        <ele>110.0</ele>
        <time>2011-05-06T06:46:28.000Z</time>
      </trkpt>
      <trkpt lon="34.983349945396185" lat="32.13593998923898">
        <ele>110.5999984741211</ele>
        <time>2011-05-06T06:46:39.000Z</time>
      </trkpt>
      <trkpt lon="34.98332999646664" lat="32.13593998923898">
        <ele>110.80000305175781</ele>
        <time>2011-05-06T06:46:53.000Z</time>
      </trkpt>
      <trkpt lon="34.98326998203993" lat="32.13596999645233">
        <ele>111.5999984741211</ele>
        <time>2011-05-06T06:47:06.000Z</time>
      </trkpt>
      <trkpt lon="34.983159927651286" lat="32.13598994538188">
        <ele>113.0</ele>
        <time>2011-05-06T06:47:25.000Z</time>
      </trkpt>
      <trkpt lon="34.98305993154645" lat="32.13600997813046">
        <ele>114.19999694824219</ele>
        <time>2011-05-06T06:47:42.000Z</time>
      </trkpt>
      <trkpt lon="34.983049957081676" lat="32.136019952595234">
        <ele>114.19999694824219</ele>
        <time>2011-05-06T06:47:43.000Z</time>
      </trkpt>
      <trkpt lon="34.98285993933678" lat="32.13604995980859">
        <ele>116.5999984741211</ele>
        <time>2011-05-06T06:47:56.000Z</time>
      </trkpt>
      <trkpt lon="34.98270998708904" lat="32.136089941486716">
        <ele>118.4000015258789</ele>
        <time>2011-05-06T06:48:05.000Z</time>
      </trkpt>
      <trkpt lon="34.98253991827369" lat="32.13607996702194">
        <ele>120.5999984741211</ele>
        <time>2011-05-06T06:48:16.000Z</time>
      </trkpt>
      <trkpt lon="34.98225996270776" lat="32.13596999645233">
        <ele>120.80000305175781</ele>
        <time>2011-05-06T06:48:33.000Z</time>
      </trkpt>
      <trkpt lon="34.982059970498085" lat="32.13580998592079">
        <ele>120.80000305175781</ele>
        <time>2011-05-06T06:48:48.000Z</time>
      </trkpt>
      <trkpt lon="34.981849920004606" lat="32.13566992431879">
        <ele>120.0</ele>
        <time>2011-05-06T06:48:57.000Z</time>
      </trkpt>
      <trkpt lon="34.98178998939693" lat="32.13555995374918">
        <ele>119.5999984741211</ele>
        <time>2011-05-06T06:49:01.000Z</time>
      </trkpt>
      <trkpt lon="34.981759982183576" lat="32.1355399210006">
        <ele>119.5999984741211</ele>
        <time>2011-05-06T06:49:12.000Z</time>
      </trkpt>
      <trkpt lon="34.981739949434996" lat="32.135529946535826">
        <ele>119.4000015258789</ele>
        <time>2011-05-06T06:49:19.000Z</time>
      </trkpt>
      <trkpt lon="34.9815499316901" lat="32.135659949854016">
        <ele>118.0</ele>
        <time>2011-05-06T06:49:28.000Z</time>
      </trkpt>
      <trkpt lon="34.981459993869066" lat="32.13568995706737">
        <ele>117.0</ele>
        <time>2011-05-06T06:49:31.000Z</time>
      </trkpt>
      <trkpt lon="34.98142998665571" lat="32.13588994927704">
        <ele>116.80000305175781</ele>
        <time>2011-05-06T06:49:42.000Z</time>
      </trkpt>
      <trkpt lon="34.98138992115855" lat="32.13592993095517">
        <ele>116.19999694824219</ele>
        <time>2011-05-06T06:49:45.000Z</time>
      </trkpt>
      <trkpt lon="34.981329990550876" lat="32.136129923164845">
        <ele>114.5999984741211</ele>
        <time>2011-05-06T06:49:56.000Z</time>
      </trkpt>
      <trkpt lon="34.98126997612417" lat="32.136279959231615">
        <ele>113.19999694824219</ele>
        <time>2011-05-06T06:50:04.000Z</time>
      </trkpt>
      <trkpt lon="34.98116998001933" lat="32.136299991980195">
        <ele>112.0</ele>
        <time>2011-05-06T06:50:07.000Z</time>
      </trkpt>
      <trkpt lon="34.98109999112785" lat="32.13636998087168">
        <ele>110.80000305175781</ele>
        <time>2011-05-06T06:50:18.000Z</time>
      </trkpt>
      <trkpt lon="34.98109999112785" lat="32.13637995533645">
        <ele>110.5999984741211</ele>
        <time>2011-05-06T06:50:54.000Z</time>
      </trkpt>
      <trkpt lon="34.98109999112785" lat="32.13636998087168">
        <ele>110.80000305175781</ele>
        <time>2011-05-06T06:51:06.000Z</time>
      </trkpt>
      <trkpt lon="34.9811199400574" lat="32.13635992258787">
        <ele>111.0</ele>
        <time>2011-05-06T06:51:29.000Z</time>
      </trkpt>
      <trkpt lon="34.9811299983412" lat="32.1363499481231">
        <ele>111.19999694824219</ele>
        <time>2011-05-06T06:52:07.000Z</time>
      </trkpt>
      <trkpt lon="34.981009969487786" lat="32.13635992258787">
        <ele>109.5999984741211</ele>
        <time>2011-05-06T06:52:21.000Z</time>
      </trkpt>
      <trkpt lon="34.98101994395256" lat="32.1363499481231">
        <ele>109.80000305175781</ele>
        <time>2011-05-06T06:52:37.000Z</time>
      </trkpt>
      <trkpt lon="34.981029918417335" lat="32.13635992258787">
        <ele>109.80000305175781</ele>
        <time>2011-05-06T06:53:04.000Z</time>
      </trkpt>
      <trkpt lon="34.98109999112785" lat="32.13636998087168">
        <ele>110.80000305175781</ele>
        <time>2011-05-06T06:53:19.000Z</time>
      </trkpt>
      <trkpt lon="34.98101994395256" lat="32.13637995533645">
        <ele>109.5999984741211</ele>
        <time>2011-05-06T06:53:30.000Z</time>
      </trkpt>
      <trkpt lon="34.981029918417335" lat="32.13637995533645">
        <ele>109.80000305175781</ele>
        <time>2011-05-06T06:53:31.000Z</time>
      </trkpt>
      <trkpt lon="34.9811199400574" lat="32.13635992258787">
        <ele>111.0</ele>
        <time>2011-05-06T06:53:46.000Z</time>
      </trkpt>
      <trkpt lon="34.9811199400574" lat="32.1363499481231">
        <ele>111.0</ele>
        <time>2011-05-06T06:54:12.000Z</time>
      </trkpt>
      <trkpt lon="34.98097996227443" lat="32.1363499481231">
        <ele>109.19999694824219</ele>
        <time>2011-05-06T06:54:23.000Z</time>
      </trkpt>
      <trkpt lon="34.98094995506108" lat="32.13635992258787">
        <ele>108.80000305175781</ele>
        <time>2011-05-06T06:54:29.000Z</time>
      </trkpt>
      <trkpt lon="34.98086999170482" lat="32.13636998087168">
        <ele>107.80000305175781</ele>
        <time>2011-05-06T06:54:34.000Z</time>
      </trkpt>
      <trkpt lon="34.98084995895624" lat="32.13637995533645">
        <ele>107.4000015258789</ele>
        <time>2011-05-06T06:54:36.000Z</time>
      </trkpt>
      <trkpt lon="34.980769995599985" lat="32.13639998808503">
        <ele>106.0</ele>
        <time>2011-05-06T06:54:41.000Z</time>
      </trkpt>
      <trkpt lon="34.980729930102825" lat="32.136409962549806">
        <ele>105.0</ele>
        <time>2011-05-06T06:54:43.000Z</time>
      </trkpt>
      <trkpt lon="34.98064996674657" lat="32.13643996976316">
        <ele>103.4000015258789</ele>
        <time>2011-05-06T06:54:53.000Z</time>
      </trkpt>
      <trkpt lon="34.98064996674657" lat="32.13645991869271">
        <ele>103.4000015258789</ele>
        <time>2011-05-06T06:55:12.000Z</time>
      </trkpt>
      <trkpt lon="34.98064996674657" lat="32.13645991869271">
        <ele>103.4000015258789</ele>
        <time>2011-05-06T06:55:29.000Z</time>
      </trkpt>
      <trkpt lon="34.98060998506844" lat="32.13643996976316">
        <ele>102.5999984741211</ele>
        <time>2011-05-06T06:55:55.000Z</time>
      </trkpt>
      <trkpt lon="34.980599926784635" lat="32.13643996976316">
        <ele>102.4000015258789</ele>
        <time>2011-05-06T06:55:56.000Z</time>
      </trkpt>
      <trkpt lon="34.98052993789315" lat="32.13643996976316">
        <ele>101.0</ele>
        <time>2011-05-06T06:56:09.000Z</time>
      </trkpt>
      <trkpt lon="34.980449974536896" lat="32.13647995144129">
        <ele>99.4000015258789</ele>
        <time>2011-05-06T06:56:24.000Z</time>
      </trkpt>
      <trkpt lon="34.980429941788316" lat="32.13649998418987">
        <ele>99.0</ele>
        <time>2011-05-06T06:56:45.000Z</time>
      </trkpt>
      <trkpt lon="34.98037998564541" lat="32.13666996918619">
        <ele>97.80000305175781</ele>
        <time>2011-05-06T06:56:57.000Z</time>
      </trkpt>
      <trkpt lon="34.98036992736161" lat="32.136689918115735">
        <ele>97.5999984741211</ele>
        <time>2011-05-06T06:58:14.000Z</time>
      </trkpt>
      <trkpt lon="34.98036992736161" lat="32.13665999472141">
        <ele>97.5999984741211</ele>
        <time>2011-05-06T06:58:28.000Z</time>
      </trkpt>
      <trkpt lon="34.98036992736161" lat="32.13664993643761">
        <ele>97.5999984741211</ele>
        <time>2011-05-06T06:58:55.000Z</time>
      </trkpt>
      <trkpt lon="34.98033992014825" lat="32.13671992532909">
        <ele>97.0</ele>
        <time>2011-05-06T06:59:28.000Z</time>
      </trkpt>
      <trkpt lon="34.98032994568348" lat="32.136709950864315">
        <ele>96.80000305175781</ele>
        <time>2011-05-06T06:59:36.000Z</time>
      </trkpt>
      <trkpt lon="34.98035995289683" lat="32.13664993643761">
        <ele>97.4000015258789</ele>
        <time>2011-05-06T06:59:57.000Z</time>
      </trkpt>
      <trkpt lon="34.98034997843206" lat="32.136599980294704">
        <ele>97.19999694824219</ele>
        <time>2011-05-06T07:00:05.000Z</time>
      </trkpt>
      <trkpt lon="34.980189967900515" lat="32.13664993643761">
        <ele>94.4000015258789</ele>
        <time>2011-05-06T07:00:12.000Z</time>
      </trkpt>
      <trkpt lon="34.98015996068716" lat="32.13666996918619">
        <ele>93.80000305175781</ele>
        <time>2011-05-06T07:00:13.000Z</time>
      </trkpt>
      <trkpt lon="34.98004999011755" lat="32.13673995807767">
        <ele>91.80000305175781</ele>
        <time>2011-05-06T07:00:17.000Z</time>
      </trkpt>
      <trkpt lon="34.97989995405078" lat="32.136899968609214">
        <ele>89.0</ele>
        <time>2011-05-06T07:00:27.000Z</time>
      </trkpt>
      <trkpt lon="34.979759976267815" lat="32.136989990249276">
        <ele>86.5999984741211</ele>
        <time>2011-05-06T07:00:38.000Z</time>
      </trkpt>
      <trkpt lon="34.979759976267815" lat="32.13699996471405">
        <ele>86.5999984741211</ele>
        <time>2011-05-06T07:00:39.000Z</time>
      </trkpt>
      <trkpt lon="34.979629972949624" lat="32.13695998303592">
        <ele>84.5999984741211</ele>
        <time>2011-05-06T07:00:48.000Z</time>
      </trkpt>
      <trkpt lon="34.9796399474144" lat="32.13709996081889">
        <ele>84.5999984741211</ele>
        <time>2011-05-06T07:00:57.000Z</time>
      </trkpt>
      <trkpt lon="34.9793999735266" lat="32.1372099313885">
        <ele>80.4000015258789</ele>
        <time>2011-05-06T07:01:10.000Z</time>
      </trkpt>
      <trkpt lon="34.97926997020841" lat="32.1372199896723">
        <ele>78.19999694824219</ele>
        <time>2011-05-06T07:01:14.000Z</time>
      </trkpt>
      <trkpt lon="34.979139966890216" lat="32.13716994971037">
        <ele>76.4000015258789</ele>
        <time>2011-05-06T07:01:19.000Z</time>
      </trkpt>
      <trkpt lon="34.979119934141636" lat="32.137159975245595">
        <ele>76.4000015258789</ele>
        <time>2011-05-06T07:01:20.000Z</time>
      </trkpt>
      <trkpt lon="34.978989930823445" lat="32.13712996803224">
        <ele>75.4000015258789</ele>
        <time>2011-05-06T07:01:25.000Z</time>
      </trkpt>
      <trkpt lon="34.9789699818939" lat="32.13714991696179">
        <ele>75.19999694824219</ele>
        <time>2011-05-06T07:01:28.000Z</time>
      </trkpt>
      <trkpt lon="34.97891994193196" lat="32.13719995692372">
        <ele>74.80000305175781</ele>
        <time>2011-05-06T07:01:40.000Z</time>
      </trkpt>
      <trkpt lon="34.97888993471861" lat="32.13719995692372">
        <ele>74.5999984741211</ele>
        <time>2011-05-06T07:02:24.000Z</time>
      </trkpt>
      <trkpt lon="34.97883997857571" lat="32.13722996413708">
        <ele>74.0</ele>
        <time>2011-05-06T07:02:34.000Z</time>
      </trkpt>
      <trkpt lon="34.97881994582713" lat="32.13723993860185">
        <ele>73.80000305175781</ele>
        <time>2011-05-06T07:02:37.000Z</time>
      </trkpt>
      <trkpt lon="34.97879999689758" lat="32.13724999688566">
        <ele>73.5999984741211</ele>
        <time>2011-05-06T07:02:44.000Z</time>
      </trkpt>
      <trkpt lon="34.97873998247087" lat="32.13735996745527">
        <ele>72.80000305175781</ele>
        <time>2011-05-06T07:02:49.000Z</time>
      </trkpt>
      <trkpt lon="34.978689942508936" lat="32.13742995634675">
        <ele>72.19999694824219</ele>
        <time>2011-05-06T07:02:52.000Z</time>
      </trkpt>
      <trkpt lon="34.97856999747455" lat="32.13753992691636">
        <ele>70.5999984741211</ele>
        <time>2011-05-06T07:02:57.000Z</time>
      </trkpt>
      <trkpt lon="34.97850998304784" lat="32.13772994466126">
        <ele>69.0</ele>
        <time>2011-05-06T07:03:02.000Z</time>
      </trkpt>
      <trkpt lon="34.97836992144585" lat="32.13796991854906">
        <ele>66.4000015258789</ele>
        <time>2011-05-06T07:03:11.000Z</time>
      </trkpt>
      <trkpt lon="34.9783999286592" lat="32.137999925762415">
        <ele>66.5999984741211</ele>
        <time>2011-05-06T07:03:22.000Z</time>
      </trkpt>
      <trkpt lon="34.97840998694301" lat="32.137999925762415">
        <ele>66.5999984741211</ele>
        <time>2011-05-06T07:03:38.000Z</time>
      </trkpt>
      <trkpt lon="34.97840998694301" lat="32.137999925762415">
        <ele>66.5999984741211</ele>
        <time>2011-05-06T07:03:54.000Z</time>
      </trkpt>
      <trkpt lon="34.97838995419443" lat="32.13800998404622">
        <ele>66.4000015258789</ele>
        <time>2011-05-06T07:04:14.000Z</time>
      </trkpt>
      <trkpt lon="34.97838995419443" lat="32.13798995129764">
        <ele>66.4000015258789</ele>
        <time>2011-05-06T07:04:50.000Z</time>
      </trkpt>
      <trkpt lon="34.9783999286592" lat="32.1380799729377">
        <ele>66.0</ele>
        <time>2011-05-06T07:04:55.000Z</time>
      </trkpt>
      <trkpt lon="34.97838995419443" lat="32.13862999342382">
        <ele>62.20000076293945</ele>
        <time>2011-05-06T07:05:08.000Z</time>
      </trkpt>
      <trkpt lon="34.97837997972965" lat="32.13884993456304">
        <ele>60.400001525878906</ele>
        <time>2011-05-06T07:05:12.000Z</time>
      </trkpt>
      <trkpt lon="34.9783999286592" lat="32.139089992269874">
        <ele>58.599998474121094</ele>
        <time>2011-05-06T07:05:17.000Z</time>
      </trkpt>
      <trkpt lon="34.97845994308591" lat="32.13918998837471">
        <ele>58.0</ele>
        <time>2011-05-06T07:05:25.000Z</time>
      </trkpt>
      <trkpt lon="34.97846991755068" lat="32.139199962839484">
        <ele>58.0</ele>
        <time>2011-05-06T07:05:26.000Z</time>
      </trkpt>
      <trkpt lon="34.978689942508936" lat="32.1393199916929">
        <ele>58.0</ele>
        <time>2011-05-06T07:05:39.000Z</time>
      </trkpt>
      <trkpt lon="34.97897995635867" lat="32.139329966157675">
        <ele>58.20000076293945</ele>
        <time>2011-05-06T07:05:54.000Z</time>
      </trkpt>
      <trkpt lon="34.9790199380368" lat="32.13933994062245">
        <ele>58.20000076293945</ele>
        <time>2011-05-06T07:05:56.000Z</time>
      </trkpt>
      <trkpt lon="34.97914994135499" lat="32.13957999832928">
        <ele>57.400001525878906</ele>
        <time>2011-05-06T07:06:07.000Z</time>
      </trkpt>
      <trkpt lon="34.97931992635131" lat="32.13982994668186">
        <ele>57.20000076293945</ele>
        <time>2011-05-06T07:06:23.000Z</time>
      </trkpt>
      <trkpt lon="34.97949996963143" lat="32.14010998606682">
        <ele>59.20000076293945</ele>
        <time>2011-05-06T07:06:40.000Z</time>
      </trkpt>
      <trkpt lon="34.97937994077802" lat="32.14025993831456">
        <ele>61.0</ele>
        <time>2011-05-06T07:06:54.000Z</time>
      </trkpt>
      <trkpt lon="34.979329984635115" lat="32.14026999659836">
        <ele>60.79999923706055</ele>
        <time>2011-05-06T07:07:06.000Z</time>
      </trkpt>
      <trkpt lon="34.97922998853028" lat="32.140299919992685">
        <ele>60.599998474121094</ele>
        <time>2011-05-06T07:07:21.000Z</time>
      </trkpt>
      <trkpt lon="34.97883997857571" lat="32.14038994163275">
        <ele>61.400001525878906</ele>
        <time>2011-05-06T07:07:38.000Z</time>
      </trkpt>
      <trkpt lon="34.97862992808223" lat="32.140599992126226">
        <ele>63.599998474121094</ele>
        <time>2011-05-06T07:07:53.000Z</time>
      </trkpt>
      <trkpt lon="34.97851995751262" lat="32.140769977122545">
        <ele>65.0</ele>
        <time>2011-05-06T07:08:04.000Z</time>
      </trkpt>
      <trkpt lon="34.97845994308591" lat="32.1407999843359">
        <ele>65.0</ele>
        <time>2011-05-06T07:08:14.000Z</time>
      </trkpt>
      <trkpt lon="34.97843999415636" lat="32.14078992605209">
        <ele>64.80000305175781</ele>
        <time>2011-05-06T07:08:28.000Z</time>
      </trkpt>
      <trkpt lon="34.97840998694301" lat="32.14077995158732">
        <ele>64.5999984741211</ele>
        <time>2011-05-06T07:08:48.000Z</time>
      </trkpt>
      <trkpt lon="34.97840998694301" lat="32.14077995158732">
        <ele>64.5999984741211</ele>
        <time>2011-05-06T07:08:49.000Z</time>
      </trkpt>
      <trkpt lon="34.9783999286592" lat="32.14077995158732">
        <ele>64.5999984741211</ele>
        <time>2011-05-06T07:08:52.000Z</time>
      </trkpt>
      <trkpt lon="34.978429935872555" lat="32.140769977122545">
        <ele>64.5999984741211</ele>
        <time>2011-05-06T07:12:42.000Z</time>
      </trkpt>
      <trkpt lon="34.97843999415636" lat="32.14075991883874">
        <ele>64.5999984741211</ele>
        <time>2011-05-06T07:13:13.000Z</time>
      </trkpt>
      <trkpt lon="34.978429935872555" lat="32.140749944373965">
        <ele>64.4000015258789</ele>
        <time>2011-05-06T07:16:24.000Z</time>
      </trkpt>
      <trkpt lon="34.97836992144585" lat="32.1407999843359">
        <ele>64.80000305175781</ele>
        <time>2011-05-06T07:21:51.000Z</time>
      </trkpt>
      <trkpt lon="34.97837997972965" lat="32.140769977122545">
        <ele>64.5999984741211</ele>
        <time>2011-05-06T07:22:17.000Z</time>
      </trkpt>
      <trkpt lon="34.97837997972965" lat="32.14075991883874">
        <ele>64.4000015258789</ele>
        <time>2011-05-06T07:23:36.000Z</time>
      </trkpt>
      <trkpt lon="34.97840998694301" lat="32.14078992605209">
        <ele>64.80000305175781</ele>
        <time>2011-05-06T07:25:26.000Z</time>
      </trkpt>
      <trkpt lon="34.97837997972965" lat="32.14083996601403">
        <ele>65.19999694824219</ele>
        <time>2011-05-06T07:26:32.000Z</time>
      </trkpt>
      <trkpt lon="34.97837997972965" lat="32.14082999154925">
        <ele>65.0</ele>
        <time>2011-05-06T07:26:59.000Z</time>
      </trkpt>
      <trkpt lon="34.978339998051524" lat="32.1408499404788">
        <ele>65.19999694824219</ele>
        <time>2011-05-06T07:27:20.000Z</time>
      </trkpt>
      <trkpt lon="34.97830999083817" lat="32.14097994379699">
        <ele>67.5999984741211</ele>
        <time>2011-05-06T07:27:38.000Z</time>
      </trkpt>
      <trkpt lon="34.97830999083817" lat="32.14097994379699">
        <ele>67.5999984741211</ele>
        <time>2011-05-06T07:27:39.000Z</time>
      </trkpt>
      <trkpt lon="34.978559939190745" lat="32.140959994867444">
        <ele>68.4000015258789</ele>
        <time>2011-05-06T07:27:55.000Z</time>
      </trkpt>
      <trkpt lon="34.978779964149" lat="32.140959994867444">
        <ele>69.4000015258789</ele>
        <time>2011-05-06T07:28:09.000Z</time>
      </trkpt>
      <trkpt lon="34.97904994525015" lat="32.14090995490551">
        <ele>69.4000015258789</ele>
        <time>2011-05-06T07:28:25.000Z</time>
      </trkpt>
      <trkpt lon="34.97935999184847" lat="32.14072999544442">
        <ele>68.19999694824219</ele>
        <time>2011-05-06T07:28:40.000Z</time>
      </trkpt>
      <trkpt lon="34.9796399474144" lat="32.140639973804355">
        <ele>69.19999694824219</ele>
        <time>2011-05-06T07:28:53.000Z</time>
      </trkpt>
      <trkpt lon="34.97980993241072" lat="32.14066998101771">
        <ele>71.19999694824219</ele>
        <time>2011-05-06T07:29:04.000Z</time>
      </trkpt>
      <trkpt lon="34.97981999069452" lat="32.14066998101771">
        <ele>71.19999694824219</ele>
        <time>2011-05-06T07:29:05.000Z</time>
      </trkpt>
      <trkpt lon="34.97989995405078" lat="32.1406599227339">
        <ele>71.80000305175781</ele>
        <time>2011-05-06T07:29:13.000Z</time>
      </trkpt>
      <trkpt lon="34.97994999401271" lat="32.140639973804355">
        <ele>71.80000305175781</ele>
        <time>2011-05-06T07:29:17.000Z</time>
      </trkpt>
      <trkpt lon="34.98024998232722" lat="32.140609966591">
        <ele>73.5999984741211</ele>
        <time>2011-05-06T07:29:28.000Z</time>
      </trkpt>
      <trkpt lon="34.98054997064173" lat="32.14054995216429">
        <ele>74.5999984741211</ele>
        <time>2011-05-06T07:29:41.000Z</time>
      </trkpt>
      <trkpt lon="34.98101994395256" lat="32.140449956059456">
        <ele>75.4000015258789</ele>
        <time>2011-05-06T07:29:55.000Z</time>
      </trkpt>
      <trkpt lon="34.98144993558526" lat="32.14052991941571">
        <ele>80.0</ele>
        <time>2011-05-06T07:30:08.000Z</time>
      </trkpt>
      <trkpt lon="34.98193994164467" lat="32.140449956059456">
        <ele>79.5999984741211</ele>
        <time>2011-05-06T07:30:23.000Z</time>
      </trkpt>
      <trkpt lon="34.982299944385886" lat="32.140429923310876">
        <ele>79.19999694824219</ele>
        <time>2011-05-06T07:30:32.000Z</time>
      </trkpt>
      <trkpt lon="34.98255995102227" lat="32.140489937737584">
        <ele>80.4000015258789</ele>
        <time>2011-05-06T07:30:38.000Z</time>
      </trkpt>
      <trkpt lon="34.982749968767166" lat="32.140639973804355">
        <ele>84.4000015258789</ele>
        <time>2011-05-06T07:30:50.000Z</time>
      </trkpt>
      <trkpt lon="34.982809983193874" lat="32.14066998101771">
        <ele>85.4000015258789</ele>
        <time>2011-05-06T07:30:55.000Z</time>
      </trkpt>
      <trkpt lon="34.982849964872" lat="32.14069998823106">
        <ele>86.19999694824219</ele>
        <time>2011-05-06T07:31:08.000Z</time>
      </trkpt>
      <trkpt lon="34.982939986512065" lat="32.14077995158732">
        <ele>88.19999694824219</ele>
        <time>2011-05-06T07:31:23.000Z</time>
      </trkpt>
      <trkpt lon="34.98294996097684" lat="32.1407999843359">
        <ele>88.5999984741211</ele>
        <time>2011-05-06T07:31:30.000Z</time>
      </trkpt>
      <trkpt lon="34.98297996819019" lat="32.14101992547512">
        <ele>92.5999984741211</ele>
        <time>2011-05-06T07:31:48.000Z</time>
      </trkpt>
      <trkpt lon="34.98299991711974" lat="32.141069965437055">
        <ele>93.5999984741211</ele>
        <time>2011-05-06T07:31:52.000Z</time>
      </trkpt>
      <trkpt lon="34.98300997540355" lat="32.14109997265041">
        <ele>94.0</ele>
        <time>2011-05-06T07:31:55.000Z</time>
      </trkpt>
      <trkpt lon="34.9830399826169" lat="32.14113995432854">
        <ele>94.80000305175781</ele>
        <time>2011-05-06T07:31:59.000Z</time>
      </trkpt>
      <trkpt lon="34.98318993486464" lat="32.14125998318195">
        <ele>96.80000305175781</ele>
        <time>2011-05-06T07:32:13.000Z</time>
      </trkpt>
      <trkpt lon="34.98333997093141" lat="32.14129996486008">
        <ele>97.4000015258789</ele>
        <time>2011-05-06T07:32:24.000Z</time>
      </trkpt>
      <trkpt lon="34.98363995924592" lat="32.14121991768479">
        <ele>99.5999984741211</ele>
        <time>2011-05-06T07:32:44.000Z</time>
      </trkpt>
      <trkpt lon="34.98385998420417" lat="32.141179936006665">
        <ele>101.4000015258789</ele>
        <time>2011-05-06T07:33:00.000Z</time>
      </trkpt>
      <trkpt lon="34.98410993255675" lat="32.141179936006665">
        <ele>104.0</ele>
        <time>2011-05-06T07:33:15.000Z</time>
      </trkpt>
      <trkpt lon="34.98421998694539" lat="32.14118999429047">
        <ele>105.0</ele>
        <time>2011-05-06T07:33:23.000Z</time>
      </trkpt>
      <trkpt lon="34.98427991755307" lat="32.141199968755245">
        <ele>105.80000305175781</ele>
        <time>2011-05-06T07:33:28.000Z</time>
      </trkpt>
      <trkpt lon="34.98430992476642" lat="32.14123995043337">
        <ele>106.5999984741211</ele>
        <time>2011-05-06T07:33:32.000Z</time>
      </trkpt>
      <trkpt lon="34.98421998694539" lat="32.141499957069755">
        <ele>109.4000015258789</ele>
        <time>2011-05-06T07:33:49.000Z</time>
      </trkpt>
      <trkpt lon="34.98417992144823" lat="32.141869934275746">
        <ele>113.0</ele>
        <time>2011-05-06T07:34:10.000Z</time>
      </trkpt>
      <trkpt lon="34.98415997251868" lat="32.142189955338836">
        <ele>115.80000305175781</ele>
        <time>2011-05-06T07:34:28.000Z</time>
      </trkpt>
      <trkpt lon="34.98415997251868" lat="32.1423299331218">
        <ele>117.19999694824219</ele>
        <time>2011-05-06T07:34:34.000Z</time>
      </trkpt>
      <trkpt lon="34.98410993255675" lat="32.14258993975818">
        <ele>118.80000305175781</ele>
        <time>2011-05-06T07:34:50.000Z</time>
      </trkpt>
      <trkpt lon="34.98404991813004" lat="32.14281993918121">
        <ele>119.4000015258789</ele>
        <time>2011-05-06T07:35:07.000Z</time>
      </trkpt>
      <trkpt lon="34.984039943665266" lat="32.142919935286045">
        <ele>119.80000305175781</ele>
        <time>2011-05-06T07:35:15.000Z</time>
      </trkpt>
      <trkpt lon="34.98410993255675" lat="32.14285992085934">
        <ele>119.5999984741211</ele>
        <time>2011-05-06T07:35:26.000Z</time>
      </trkpt>
      <trkpt lon="34.98406995087862" lat="32.142829997465014">
        <ele>119.5999984741211</ele>
        <time>2011-05-06T07:35:30.000Z</time>
      </trkpt>
      <trkpt lon="34.9840899836272" lat="32.1428999863565">
        <ele>119.80000305175781</ele>
        <time>2011-05-06T07:35:40.000Z</time>
      </trkpt>
      <trkpt lon="34.984059976413846" lat="32.14283997192979">
        <ele>119.5999984741211</ele>
        <time>2011-05-06T07:35:49.000Z</time>
      </trkpt>
      <trkpt lon="34.984039943665266" lat="32.14288992807269">
        <ele>119.5999984741211</ele>
        <time>2011-05-06T07:35:53.000Z</time>
      </trkpt>
      <trkpt lon="34.984039943665266" lat="32.142919935286045">
        <ele>119.80000305175781</ele>
        <time>2011-05-06T07:35:55.000Z</time>
      </trkpt>
      <trkpt lon="34.984249994158745" lat="32.14303996413946">
        <ele>120.5999984741211</ele>
        <time>2011-05-06T07:36:09.000Z</time>
      </trkpt>
      <trkpt lon="34.98423993587494" lat="32.14298992417753">
        <ele>120.4000015258789</ele>
        <time>2011-05-06T07:36:19.000Z</time>
      </trkpt>
      <trkpt lon="34.98406995087862" lat="32.14288992807269">
        <ele>119.5999984741211</ele>
        <time>2011-05-06T07:36:35.000Z</time>
      </trkpt>
      <trkpt lon="34.983969954773784" lat="32.142829997465014">
        <ele>119.4000015258789</ele>
        <time>2011-05-06T07:36:48.000Z</time>
      </trkpt>
      <trkpt lon="34.98386995866895" lat="32.142809964716434">
        <ele>119.0</ele>
        <time>2011-05-06T07:36:57.000Z</time>
      </trkpt>
      <trkpt lon="34.983779937028885" lat="32.14281993918121">
        <ele>118.80000305175781</ele>
        <time>2011-05-06T07:37:01.000Z</time>
      </trkpt>
      <trkpt lon="34.98348992317915" lat="32.142789931967854">
        <ele>118.0</ele>
        <time>2011-05-06T07:37:13.000Z</time>
      </trkpt>
      <trkpt lon="34.98337995260954" lat="32.142749950289726">
        <ele>117.4000015258789</ele>
        <time>2011-05-06T07:37:18.000Z</time>
      </trkpt>
      <trkpt lon="34.983239974826574" lat="32.142659928649664">
        <ele>117.5999984741211</ele>
        <time>2011-05-06T07:37:23.000Z</time>
      </trkpt>
      <trkpt lon="34.983049957081676" lat="32.142639979720116">
        <ele>119.5999984741211</ele>
        <time>2011-05-06T07:37:30.000Z</time>
      </trkpt>
      <trkpt lon="34.98294996097684" lat="32.14257996529341">
        <ele>120.19999694824219</ele>
        <time>2011-05-06T07:37:37.000Z</time>
      </trkpt>
      <trkpt lon="34.98282993212342" lat="32.14247996918857">
        <ele>120.5999984741211</ele>
        <time>2011-05-06T07:37:45.000Z</time>
      </trkpt>
      <trkpt lon="34.98247998766601" lat="32.1422799769789">
        <ele>120.19999694824219</ele>
        <time>2011-05-06T07:38:00.000Z</time>
      </trkpt>
      <trkpt lon="34.982339926064014" lat="32.14221996255219">
        <ele>120.0</ele>
        <time>2011-05-06T07:38:10.000Z</time>
      </trkpt>
      <trkpt lon="34.98234998434782" lat="32.14221996255219">
        <ele>120.0</ele>
        <time>2011-05-06T07:38:35.000Z</time>
      </trkpt>
      <trkpt lon="34.98234998434782" lat="32.14219992980361">
        <ele>119.5999984741211</ele>
        <time>2011-05-06T07:39:00.000Z</time>
      </trkpt>
      <trkpt lon="34.98239994049072" lat="32.142229937016964">
        <ele>119.80000305175781</ele>
        <time>2011-05-06T07:40:01.000Z</time>
      </trkpt>
      <trkpt lon="34.98239994049072" lat="32.14223999530077">
        <ele>120.0</ele>
        <time>2011-05-06T07:40:18.000Z</time>
      </trkpt>
      <trkpt lon="34.98236993327737" lat="32.142229937016964">
        <ele>120.0</ele>
        <time>2011-05-06T07:40:35.000Z</time>
      </trkpt>
      <trkpt lon="34.982249988242984" lat="32.14221996255219">
        <ele>120.80000305175781</ele>
        <time>2011-05-06T07:40:40.000Z</time>
      </trkpt>
      <trkpt lon="34.98223992995918" lat="32.142189955338836">
        <ele>120.19999694824219</ele>
        <time>2011-05-06T07:40:43.000Z</time>
      </trkpt>
      <trkpt lon="34.982249988242984" lat="32.142209988087416">
        <ele>120.5999984741211</ele>
        <time>2011-05-06T07:40:53.000Z</time>
      </trkpt>
      <trkpt lon="34.98227999545634" lat="32.142209988087416">
        <ele>120.4000015258789</ele>
        <time>2011-05-06T07:40:59.000Z</time>
      </trkpt>
      <trkpt lon="34.98230991885066" lat="32.142209988087416">
        <ele>120.0</ele>
        <time>2011-05-06T07:41:02.000Z</time>
      </trkpt>
      <trkpt lon="34.98238996602595" lat="32.142229937016964">
        <ele>120.0</ele>
        <time>2011-05-06T07:41:16.000Z</time>
      </trkpt>
      <trkpt lon="34.98238996602595" lat="32.142229937016964">
        <ele>120.0</ele>
        <time>2011-05-06T07:41:20.000Z</time>
      </trkpt>
      <trkpt lon="34.98228996992111" lat="32.14221996255219">
        <ele>120.4000015258789</ele>
        <time>2011-05-06T07:41:25.000Z</time>
      </trkpt>
      <trkpt lon="34.9821799993515" lat="32.14221996255219">
        <ele>121.19999694824219</ele>
        <time>2011-05-06T07:41:35.000Z</time>
      </trkpt>
      <trkpt lon="34.98200993053615" lat="32.14219992980361">
        <ele>122.19999694824219</ele>
        <time>2011-05-06T07:41:51.000Z</time>
      </trkpt>
      <trkpt lon="34.98180993832648" lat="32.14213999919593">
        <ele>122.4000015258789</ele>
        <time>2011-05-06T07:42:02.000Z</time>
      </trkpt>
      <trkpt lon="34.98159997165203" lat="32.14209993369877">
        <ele>122.5999984741211</ele>
        <time>2011-05-06T07:42:11.000Z</time>
      </trkpt>
      <trkpt lon="34.98144993558526" lat="32.142079984769225">
        <ele>122.19999694824219</ele>
        <time>2011-05-06T07:42:16.000Z</time>
      </trkpt>
      <trkpt lon="34.98129998333752" lat="32.142169922590256">
        <ele>124.0</ele>
        <time>2011-05-06T07:42:28.000Z</time>
      </trkpt>
      <trkpt lon="34.981289925053716" lat="32.142169922590256">
        <ele>123.80000305175781</ele>
        <time>2011-05-06T07:42:39.000Z</time>
      </trkpt>
      <trkpt lon="34.98129998333752" lat="32.14217998087406">
        <ele>124.19999694824219</ele>
        <time>2011-05-06T07:42:57.000Z</time>
      </trkpt>
      <trkpt lon="34.981289925053716" lat="32.14219992980361">
        <ele>124.4000015258789</ele>
        <time>2011-05-06T07:43:16.000Z</time>
      </trkpt>
      <trkpt lon="34.98129998333752" lat="32.14219992980361">
        <ele>124.4000015258789</ele>
        <time>2011-05-06T07:43:33.000Z</time>
      </trkpt>
      <trkpt lon="34.98126997612417" lat="32.142209988087416">
        <ele>124.5999984741211</ele>
        <time>2011-05-06T07:44:02.000Z</time>
      </trkpt>
      <trkpt lon="34.98121993616223" lat="32.14223999530077">
        <ele>125.19999694824219</ele>
        <time>2011-05-06T07:44:06.000Z</time>
      </trkpt>
      <trkpt lon="34.981009969487786" lat="32.14243998751044">
        <ele>129.0</ele>
        <time>2011-05-06T07:44:21.000Z</time>
      </trkpt>
      <trkpt lon="34.98097996227443" lat="32.14264995418489">
        <ele>130.60000610351562</ele>
        <time>2011-05-06T07:44:36.000Z</time>
      </trkpt>
      <trkpt lon="34.980859933421016" lat="32.14279999025166">
        <ele>131.0</ele>
        <time>2011-05-06T07:44:50.000Z</time>
      </trkpt>
      <trkpt lon="34.98082992620766" lat="32.14283997192979">
        <ele>131.0</ele>
        <time>2011-05-06T07:44:53.000Z</time>
      </trkpt>
      <trkpt lon="34.980579977855086" lat="32.14301993139088">
        <ele>128.8000030517578</ele>
        <time>2011-05-06T07:45:04.000Z</time>
      </trkpt>
      <trkpt lon="34.98052993789315" lat="32.143069971352816">
        <ele>128.39999389648438</ele>
        <time>2011-05-06T07:45:07.000Z</time>
      </trkpt>
      <trkpt lon="34.980489956215024" lat="32.14326996356249">
        <ele>129.0</ele>
        <time>2011-05-06T07:45:18.000Z</time>
      </trkpt>
      <trkpt lon="34.980259956792" lat="32.143569951877">
        <ele>127.19999694824219</ele>
        <time>2011-05-06T07:45:30.000Z</time>
      </trkpt>
      <trkpt lon="34.980129953473806" lat="32.14384999126196">
        <ele>127.19999694824219</ele>
        <time>2011-05-06T07:45:41.000Z</time>
      </trkpt>
      <trkpt lon="34.980059964582324" lat="32.14408996514976">
        <ele>127.80000305175781</ele>
        <time>2011-05-06T07:45:52.000Z</time>
      </trkpt>
      <trkpt lon="34.98009994626045" lat="32.14413992129266">
        <ele>128.0</ele>
        <time>2011-05-06T07:45:55.000Z</time>
      </trkpt>
      <trkpt lon="34.98045994900167" lat="32.14410999789834">
        <ele>129.0</ele>
        <time>2011-05-06T07:46:14.000Z</time>
      </trkpt>
      <trkpt lon="34.98053999617696" lat="32.144099939614534">
        <ele>129.1999969482422</ele>
        <time>2011-05-06T07:46:32.000Z</time>
      </trkpt>
      <trkpt lon="34.98054997064173" lat="32.144099939614534">
        <ele>129.1999969482422</ele>
        <time>2011-05-06T07:47:11.000Z</time>
      </trkpt>
      <trkpt lon="34.98053999617696" lat="32.144099939614534">
        <ele>129.1999969482422</ele>
        <time>2011-05-06T07:48:30.000Z</time>
      </trkpt>
      <trkpt lon="34.98053999617696" lat="32.144099939614534">
        <ele>129.1999969482422</ele>
        <time>2011-05-06T07:48:31.000Z</time>
      </trkpt>
      <trkpt lon="34.98047998175025" lat="32.144099939614534">
        <ele>129.0</ele>
        <time>2011-05-06T07:48:35.000Z</time>
      </trkpt>
      <trkpt lon="34.97998997569084" lat="32.14412994682789">
        <ele>127.5999984741211</ele>
        <time>2011-05-06T07:48:48.000Z</time>
      </trkpt>
      <trkpt lon="34.979609940201044" lat="32.14417998678982">
        <ele>124.4000015258789</ele>
        <time>2011-05-06T07:48:58.000Z</time>
      </trkpt>
      <trkpt lon="34.97934993356466" lat="32.14414997957647">
        <ele>122.19999694824219</ele>
        <time>2011-05-06T07:49:07.000Z</time>
      </trkpt>
      <trkpt lon="34.97914994135499" lat="32.144249975681305">
        <ele>119.4000015258789</ele>
        <time>2011-05-06T07:49:17.000Z</time>
      </trkpt>
      <trkpt lon="34.97899998910725" lat="32.14432993903756">
        <ele>117.0</ele>
        <time>2011-05-06T07:49:23.000Z</time>
      </trkpt>
      <trkpt lon="34.97890996746719" lat="32.144229942932725">
        <ele>117.5999984741211</ele>
        <time>2011-05-06T07:49:31.000Z</time>
      </trkpt>
      <trkpt lon="34.97894994914532" lat="32.14414997957647">
        <ele>118.5999984741211</ele>
        <time>2011-05-06T07:49:35.000Z</time>
      </trkpt>
      <trkpt lon="34.978989930823445" lat="32.14391998015344">
        <ele>116.5999984741211</ele>
        <time>2011-05-06T07:49:44.000Z</time>
      </trkpt>
      <trkpt lon="34.979009963572025" lat="32.14388997294009">
        <ele>116.4000015258789</ele>
        <time>2011-05-06T07:49:45.000Z</time>
      </trkpt>
      <trkpt lon="34.9790199380368" lat="32.14385996572673">
        <ele>116.19999694824219</ele>
        <time>2011-05-06T07:49:46.000Z</time>
      </trkpt>
      <trkpt lon="34.97888993471861" lat="32.1438099257648">
        <ele>114.4000015258789</ele>
        <time>2011-05-06T07:49:52.000Z</time>
      </trkpt>
      <trkpt lon="34.97864996083081" lat="32.14402995072305">
        <ele>114.4000015258789</ele>
        <time>2011-05-06T07:50:03.000Z</time>
      </trkpt>
      <trkpt lon="34.978429935872555" lat="32.14414997957647">
        <ele>113.5999984741211</ele>
        <time>2011-05-06T07:50:12.000Z</time>
      </trkpt>
      <trkpt lon="34.978299932554364" lat="32.14417998678982">
        <ele>112.4000015258789</ele>
        <time>2011-05-06T07:50:16.000Z</time>
      </trkpt>
      <trkpt lon="34.97813992202282" lat="32.14430999010801">
        <ele>110.0</ele>
        <time>2011-05-06T07:50:23.000Z</time>
      </trkpt>
      <trkpt lon="34.97811997309327" lat="32.14433999732137">
        <ele>109.5999984741211</ele>
        <time>2011-05-06T07:50:24.000Z</time>
      </trkpt>
      <trkpt lon="34.97811997309327" lat="32.14440998621285">
        <ele>109.4000015258789</ele>
        <time>2011-05-06T07:50:26.000Z</time>
      </trkpt>
      <trkpt lon="34.97803992591798" lat="32.144679967314005">
        <ele>107.5999984741211</ele>
        <time>2011-05-06T07:50:37.000Z</time>
      </trkpt>
      <trkpt lon="34.97787999920547" lat="32.14483997784555">
        <ele>106.0</ele>
        <time>2011-05-06T07:50:49.000Z</time>
      </trkpt>
      <trkpt lon="34.97787999920547" lat="32.144869985058904">
        <ele>106.0</ele>
        <time>2011-05-06T07:50:53.000Z</time>
      </trkpt>
      <trkpt lon="34.97787999920547" lat="32.14481994509697">
        <ele>106.0</ele>
        <time>2011-05-06T07:51:06.000Z</time>
      </trkpt>
      <trkpt lon="34.97787999920547" lat="32.14483997784555">
        <ele>106.0</ele>
        <time>2011-05-06T07:51:08.000Z</time>
      </trkpt>
      <trkpt lon="34.97785996645689" lat="32.145089926198125">
        <ele>104.19999694824219</ele>
        <time>2011-05-06T07:51:19.000Z</time>
      </trkpt>
      <trkpt lon="34.97783993370831" lat="32.14513996616006">
        <ele>103.19999694824219</ele>
        <time>2011-05-06T07:51:31.000Z</time>
      </trkpt>
      <trkpt lon="34.97783993370831" lat="32.14515999890864">
        <ele>103.0</ele>
        <time>2011-05-06T07:51:42.000Z</time>
      </trkpt>
      <trkpt lon="34.97763994149864" lat="32.14517994783819">
        <ele>101.4000015258789</ele>
        <time>2011-05-06T07:51:50.000Z</time>
      </trkpt>
      <trkpt lon="34.977399967610836" lat="32.145089926198125">
        <ele>100.80000305175781</ele>
        <time>2011-05-06T07:51:59.000Z</time>
      </trkpt>
      <trkpt lon="34.977309945970774" lat="32.144999988377094">
        <ele>101.19999694824219</ele>
        <time>2011-05-06T07:52:10.000Z</time>
      </trkpt>
      <trkpt lon="34.977289997041225" lat="32.144979955628514">
        <ele>100.80000305175781</ele>
        <time>2011-05-06T07:52:18.000Z</time>
      </trkpt>
      <trkpt lon="34.977289997041225" lat="32.14470997452736">
        <ele>100.19999694824219</ele>
        <time>2011-05-06T07:52:32.000Z</time>
      </trkpt>
      <trkpt lon="34.97752997092903" lat="32.14455993846059">
        <ele>103.5999984741211</ele>
        <time>2011-05-06T07:52:43.000Z</time>
      </trkpt>
      <trkpt lon="34.97759995982051" lat="32.14431996457279">
        <ele>104.19999694824219</ele>
        <time>2011-05-06T07:52:53.000Z</time>
      </trkpt>
      <trkpt lon="34.97760993428528" lat="32.14427998289466">
        <ele>104.19999694824219</ele>
        <time>2011-05-06T07:52:55.000Z</time>
      </trkpt>
      <trkpt lon="34.97749996371567" lat="32.14421996846795">
        <ele>103.0</ele>
        <time>2011-05-06T07:53:01.000Z</time>
      </trkpt>
      <trkpt lon="34.97736996039748" lat="32.144059957936406">
        <ele>99.19999694824219</ele>
        <time>2011-05-06T07:53:10.000Z</time>
      </trkpt>
      <trkpt lon="34.97746995650232" lat="32.14384999126196">
        <ele>98.19999694824219</ele>
        <time>2011-05-06T07:53:18.000Z</time>
      </trkpt>
      <trkpt lon="34.97759995982051" lat="32.143689980730414">
        <ele>98.0</ele>
        <time>2011-05-06T07:53:26.000Z</time>
      </trkpt>
      <trkpt lon="34.97765997424722" lat="32.14365997351706">
        <ele>98.4000015258789</ele>
        <time>2011-05-06T07:53:28.000Z</time>
      </trkpt>
      <trkpt lon="34.97779995203018" lat="32.14357992634177">
        <ele>99.19999694824219</ele>
        <time>2011-05-06T07:53:33.000Z</time>
      </trkpt>
      <trkpt lon="34.977699955925345" lat="32.14346995577216">
        <ele>96.5999984741211</ele>
        <time>2011-05-06T07:53:40.000Z</time>
      </trkpt>
      <trkpt lon="34.97765997424722" lat="32.14346995577216">
        <ele>96.0</ele>
        <time>2011-05-06T07:53:41.000Z</time>
      </trkpt>
      <trkpt lon="34.977379934862256" lat="32.14363994076848">
        <ele>94.0</ele>
        <time>2011-05-06T07:53:51.000Z</time>
      </trkpt>
      <trkpt lon="34.977309945970774" lat="32.14371998794377">
        <ele>94.0</ele>
        <time>2011-05-06T07:53:55.000Z</time>
      </trkpt>
      <trkpt lon="34.97725998982787" lat="32.1437599696219">
        <ele>93.5999984741211</ele>
        <time>2011-05-06T07:53:57.000Z</time>
      </trkpt>
      <trkpt lon="34.977139960974455" lat="32.14388997294009">
        <ele>93.19999694824219</ele>
        <time>2011-05-06T07:54:04.000Z</time>
      </trkpt>
      <trkpt lon="34.976879954338074" lat="32.1439999435097">
        <ele>90.0</ele>
        <time>2011-05-06T07:54:14.000Z</time>
      </trkpt>
      <trkpt lon="34.976879954338074" lat="32.143989969044924">
        <ele>89.80000305175781</ele>
        <time>2011-05-06T07:54:21.000Z</time>
      </trkpt>
      <trkpt lon="34.97693996876478" lat="32.14388997294009">
        <ele>89.80000305175781</ele>
        <time>2011-05-06T07:54:31.000Z</time>
      </trkpt>
      <trkpt lon="34.97704993933439" lat="32.143569951877">
        <ele>88.0</ele>
        <time>2011-05-06T07:54:45.000Z</time>
      </trkpt>
      <trkpt lon="34.9771099537611" lat="32.143519995734096">
        <ele>88.4000015258789</ele>
        <time>2011-05-06T07:54:48.000Z</time>
      </trkpt>
      <trkpt lon="34.97718991711736" lat="32.14340994134545">
        <ele>88.4000015258789</ele>
        <time>2011-05-06T07:54:57.000Z</time>
      </trkpt>
      <trkpt lon="34.97721992433071" lat="32.143369959667325">
        <ele>88.4000015258789</ele>
        <time>2011-05-06T07:55:08.000Z</time>
      </trkpt>
      <trkpt lon="34.97723995707929" lat="32.14333995245397">
        <ele>88.19999694824219</ele>
        <time>2011-05-06T07:55:14.000Z</time>
      </trkpt>
      <trkpt lon="34.97722998261452" lat="32.14330994524062">
        <ele>87.80000305175781</ele>
        <time>2011-05-06T07:55:16.000Z</time>
      </trkpt>
      <trkpt lon="34.9770599976182" lat="32.14343994855881">
        <ele>86.80000305175781</ele>
        <time>2011-05-06T07:55:27.000Z</time>
      </trkpt>
      <trkpt lon="34.977029990404844" lat="32.14348998852074">
        <ele>86.80000305175781</ele>
        <time>2011-05-06T07:55:31.000Z</time>
      </trkpt>
      <trkpt lon="34.976819939911366" lat="32.143649999052286">
        <ele>85.4000015258789</ele>
        <time>2011-05-06T07:55:41.000Z</time>
      </trkpt>
      <trkpt lon="34.976599998772144" lat="32.14382995851338">
        <ele>83.80000305175781</ele>
        <time>2011-05-06T07:55:49.000Z</time>
      </trkpt>
      <trkpt lon="34.97652992606163" lat="32.14376994408667">
        <ele>82.4000015258789</ele>
        <time>2011-05-06T07:55:54.000Z</time>
      </trkpt>
      <trkpt lon="34.97658994048834" lat="32.143559977412224">
        <ele>81.19999694824219</ele>
        <time>2011-05-06T07:56:01.000Z</time>
      </trkpt>
      <trkpt lon="34.97680996544659" lat="32.143349926918745">
        <ele>82.19999694824219</ele>
        <time>2011-05-06T07:56:11.000Z</time>
      </trkpt>
      <trkpt lon="34.97679999098182" lat="32.143049938604236">
        <ele>79.4000015258789</ele>
        <time>2011-05-06T07:56:21.000Z</time>
      </trkpt>
      <trkpt lon="34.97679999098182" lat="32.14295991696417">
        <ele>78.80000305175781</ele>
        <time>2011-05-06T07:56:25.000Z</time>
      </trkpt>
      <trkpt lon="34.97675992548466" lat="32.14286997914314">
        <ele>77.5999984741211</ele>
        <time>2011-05-06T07:56:34.000Z</time>
      </trkpt>
      <trkpt lon="34.97675992548466" lat="32.14286997914314">
        <ele>77.5999984741211</ele>
        <time>2011-05-06T07:56:58.000Z</time>
      </trkpt>
      <trkpt lon="34.97654995881021" lat="32.1429499424994">
        <ele>76.0</ele>
        <time>2011-05-06T07:57:07.000Z</time>
      </trkpt>
      <trkpt lon="34.976259944960475" lat="32.14299998246133">
        <ele>73.80000305175781</ele>
        <time>2011-05-06T07:57:17.000Z</time>
      </trkpt>
      <trkpt lon="34.97621996328235" lat="32.14301993139088">
        <ele>73.5999984741211</ele>
        <time>2011-05-06T07:57:18.000Z</time>
      </trkpt>
      <trkpt lon="34.9760599527508" lat="32.14324993081391">
        <ele>73.5999984741211</ele>
        <time>2011-05-06T07:57:25.000Z</time>
      </trkpt>
      <trkpt lon="34.97585996054113" lat="32.143539944663644">
        <ele>73.0</ele>
        <time>2011-05-06T07:57:37.000Z</time>
      </trkpt>
      <trkpt lon="34.97573993168771" lat="32.143609933555126">
        <ele>72.0</ele>
        <time>2011-05-06T07:57:40.000Z</time>
      </trkpt>
      <trkpt lon="34.97564999386668" lat="32.143609933555126">
        <ele>71.19999694824219</ele>
        <time>2011-05-06T07:57:42.000Z</time>
      </trkpt>
      <trkpt lon="34.97544991783798" lat="32.14361999183893">
        <ele>69.19999694824219</ele>
        <time>2011-05-06T07:57:46.000Z</time>
      </trkpt>
      <trkpt lon="34.97534992173314" lat="32.14365997351706">
        <ele>68.4000015258789</ele>
        <time>2011-05-06T07:57:48.000Z</time>
      </trkpt>
      <trkpt lon="34.97525998391211" lat="32.14367992244661">
        <ele>67.5999984741211</ele>
        <time>2011-05-06T07:57:50.000Z</time>
      </trkpt>
      <trkpt lon="34.97516996227205" lat="32.14352997019887">
        <ele>66.19999694824219</ele>
        <time>2011-05-06T07:57:55.000Z</time>
      </trkpt>
      <trkpt lon="34.97531999833882" lat="32.14322998188436">
        <ele>66.19999694824219</ele>
        <time>2011-05-06T07:58:04.000Z</time>
      </trkpt>
      <trkpt lon="34.975509932264686" lat="32.14300995692611">
        <ele>66.5999984741211</ele>
        <time>2011-05-06T07:58:11.000Z</time>
      </trkpt>
      <trkpt lon="34.97555997222662" lat="32.14288992807269">
        <ele>66.19999694824219</ele>
        <time>2011-05-06T07:58:14.000Z</time>
      </trkpt>
      <trkpt lon="34.97570992447436" lat="32.142749950289726">
        <ele>67.0</ele>
        <time>2011-05-06T07:58:23.000Z</time>
      </trkpt>
      <trkpt lon="34.975979989394546" lat="32.142319958657026">
        <ele>66.4000015258789</ele>
        <time>2011-05-06T07:58:36.000Z</time>
      </trkpt>
      <trkpt lon="34.976109992712736" lat="32.14213999919593">
        <ele>65.80000305175781</ele>
        <time>2011-05-06T07:58:41.000Z</time>
      </trkpt>
      <trkpt lon="34.976389948278666" lat="32.14187999255955">
        <ele>65.5999984741211</ele>
        <time>2011-05-06T07:58:52.000Z</time>
      </trkpt>
      <trkpt lon="34.976449962705374" lat="32.14168997481465">
        <ele>64.4000015258789</ele>
        <time>2011-05-06T07:58:58.000Z</time>
      </trkpt>
      <trkpt lon="34.97661994770169" lat="32.1414199937135">
        <ele>63.20000076293945</ele>
        <time>2011-05-06T07:59:08.000Z</time>
      </trkpt>
      <trkpt lon="34.97656999155879" lat="32.141309939324856">
        <ele>62.0</ele>
        <time>2011-05-06T07:59:18.000Z</time>
      </trkpt>
      <trkpt lon="34.97656999155879" lat="32.141309939324856">
        <ele>62.0</ele>
        <time>2011-05-06T07:59:31.000Z</time>
      </trkpt>
      <trkpt lon="34.97656999155879" lat="32.14131999760866">
        <ele>62.0</ele>
        <time>2011-05-06T07:59:45.000Z</time>
      </trkpt>
      <trkpt lon="34.976539984345436" lat="32.14131999760866">
        <ele>61.79999923706055</ele>
        <time>2011-05-06T08:00:56.000Z</time>
      </trkpt>
      <trkpt lon="34.976519951596856" lat="32.141309939324856">
        <ele>61.599998474121094</ele>
        <time>2011-05-06T08:01:45.000Z</time>
      </trkpt>
      <trkpt lon="34.976519951596856" lat="32.141309939324856">
        <ele>61.599998474121094</ele>
        <time>2011-05-06T08:02:40.000Z</time>
      </trkpt>
      <trkpt lon="34.976539984345436" lat="32.14129996486008">
        <ele>61.599998474121094</ele>
        <time>2011-05-06T08:02:49.000Z</time>
      </trkpt>
      <trkpt lon="34.976519951596856" lat="32.14116996154189">
        <ele>60.400001525878906</ele>
        <time>2011-05-06T08:02:54.000Z</time>
      </trkpt>
      <trkpt lon="34.97633999213576" lat="32.14097994379699">
        <ele>58.20000076293945</ele>
        <time>2011-05-06T08:03:01.000Z</time>
      </trkpt>
      <trkpt lon="34.975959956645966" lat="32.140879947692156">
        <ele>56.400001525878906</ele>
        <time>2011-05-06T08:03:14.000Z</time>
      </trkpt>
      <trkpt lon="34.975569946691394" lat="32.14088992215693">
        <ele>56.400001525878906</ele>
        <time>2011-05-06T08:03:26.000Z</time>
      </trkpt>
      <trkpt lon="34.97547992505133" lat="32.14088992215693">
        <ele>56.400001525878906</ele>
        <time>2011-05-06T08:03:28.000Z</time>
      </trkpt>
      <trkpt lon="34.97510994784534" lat="32.140769977122545">
        <ele>57.20000076293945</ele>
        <time>2011-05-06T08:03:39.000Z</time>
      </trkpt>
      <trkpt lon="34.974859999492764" lat="32.14053997769952">
        <ele>59.599998474121094</ele>
        <time>2011-05-06T08:03:52.000Z</time>
      </trkpt>
      <trkpt lon="34.97467995621264" lat="32.140429923310876">
        <ele>61.0</ele>
        <time>2011-05-06T08:04:04.000Z</time>
      </trkpt>
      <trkpt lon="34.97465992346406" lat="32.140429923310876">
        <ele>61.0</ele>
        <time>2011-05-06T08:04:15.000Z</time>
      </trkpt>
      <trkpt lon="34.97465992346406" lat="32.14043998159468">
        <ele>61.0</ele>
        <time>2011-05-06T08:04:28.000Z</time>
      </trkpt>
      <trkpt lon="34.974649948999286" lat="32.14043998159468">
        <ele>61.0</ele>
        <time>2011-05-06T08:04:38.000Z</time>
      </trkpt>
      <trkpt lon="34.97448993846774" lat="32.140489937737584">
        <ele>61.400001525878906</ele>
        <time>2011-05-06T08:04:46.000Z</time>
      </trkpt>
      <trkpt lon="34.97439991682768" lat="32.14051994495094">
        <ele>61.400001525878906</ele>
        <time>2011-05-06T08:04:51.000Z</time>
      </trkpt>
      <trkpt lon="34.974259939044714" lat="32.140509970486164">
        <ele>62.0</ele>
        <time>2011-05-06T08:05:04.000Z</time>
      </trkpt>
      <trkpt lon="34.97416991740465" lat="32.14052991941571">
        <ele>62.400001525878906</ele>
        <time>2011-05-06T08:05:22.000Z</time>
      </trkpt>
      <trkpt lon="34.97416991740465" lat="32.14053997769952">
        <ele>62.20000076293945</ele>
        <time>2011-05-06T08:05:27.000Z</time>
      </trkpt>
      <trkpt lon="34.97403999790549" lat="32.14069998823106">
        <ele>63.20000076293945</ele>
        <time>2011-05-06T08:05:38.000Z</time>
      </trkpt>
      <trkpt lon="34.97394997626543" lat="32.14077995158732">
        <ele>64.0</ele>
        <time>2011-05-06T08:05:42.000Z</time>
      </trkpt>
      <trkpt lon="34.9739099945873" lat="32.14081993326545">
        <ele>64.4000015258789</ele>
        <time>2011-05-06T08:05:44.000Z</time>
      </trkpt>
      <trkpt lon="34.973659962415695" lat="32.14105999097228">
        <ele>63.79999923706055</ele>
        <time>2011-05-06T08:05:56.000Z</time>
      </trkpt>
      <trkpt lon="34.97364998795092" lat="32.141089998185635">
        <ele>63.400001525878906</ele>
        <time>2011-05-06T08:05:57.000Z</time>
      </trkpt>
      <trkpt lon="34.97361998073757" lat="32.14111992157996">
        <ele>63.20000076293945</ele>
        <time>2011-05-06T08:05:59.000Z</time>
      </trkpt>
      <trkpt lon="34.973549991846085" lat="32.14115998707712">
        <ele>63.0</ele>
        <time>2011-05-06T08:06:02.000Z</time>
      </trkpt>
      <trkpt lon="34.97351998463273" lat="32.14114992879331">
        <ele>63.400001525878906</ele>
        <time>2011-05-06T08:06:12.000Z</time>
      </trkpt>
      <trkpt lon="34.973529959097505" lat="32.14114992879331">
        <ele>63.400001525878906</ele>
        <time>2011-05-06T08:06:18.000Z</time>
      </trkpt>
      <trkpt lon="34.97361998073757" lat="32.14110994711518">
        <ele>63.20000076293945</ele>
        <time>2011-05-06T08:06:30.000Z</time>
      </trkpt>
      <trkpt lon="34.97347991913557" lat="32.14116996154189">
        <ele>63.400001525878906</ele>
        <time>2011-05-06T08:06:38.000Z</time>
      </trkpt>
      <trkpt lon="34.97323994524777" lat="32.141309939324856">
        <ele>62.599998474121094</ele>
        <time>2011-05-06T08:06:51.000Z</time>
      </trkpt>
      <trkpt lon="34.972949931398034" lat="32.1414699498564">
        <ele>62.400001525878906</ele>
        <time>2011-05-06T08:07:03.000Z</time>
      </trkpt>
      <trkpt lon="34.97273996472359" lat="32.14166994206607">
        <ele>61.0</ele>
        <time>2011-05-06T08:07:12.000Z</time>
      </trkpt>
      <trkpt lon="34.97257995419204" lat="32.14178997091949">
        <ele>61.400001525878906</ele>
        <time>2011-05-06T08:07:16.000Z</time>
      </trkpt>
      <trkpt lon="34.97242991812527" lat="32.14199993759394">
        <ele>60.0</ele>
        <time>2011-05-06T08:07:24.000Z</time>
      </trkpt>
      <trkpt lon="34.97224995866418" lat="32.14217998087406">
        <ele>59.20000076293945</ele>
        <time>2011-05-06T08:07:34.000Z</time>
      </trkpt>
      <trkpt lon="34.972199918702245" lat="32.14221996255219">
        <ele>59.20000076293945</ele>
        <time>2011-05-06T08:07:36.000Z</time>
      </trkpt>
      <trkpt lon="34.97209992259741" lat="32.1422799769789">
        <ele>59.20000076293945</ele>
        <time>2011-05-06T08:07:41.000Z</time>
      </trkpt>
      <trkpt lon="34.97194997034967" lat="32.14238994754851">
        <ele>59.0</ele>
        <time>2011-05-06T08:07:47.000Z</time>
      </trkpt>
      <trkpt lon="34.97183999978006" lat="32.14240998029709">
        <ele>59.79999923706055</ele>
        <time>2011-05-06T08:07:51.000Z</time>
      </trkpt>
      <trkpt lon="34.971529953181744" lat="32.14256999082863">
        <ele>61.0</ele>
        <time>2011-05-06T08:08:03.000Z</time>
      </trkpt>
      <trkpt lon="34.97128997929394" lat="32.142809964716434">
        <ele>61.599998474121094</ele>
        <time>2011-05-06T08:08:14.000Z</time>
      </trkpt>
      <trkpt lon="34.97113994322717" lat="32.14288992807269">
        <ele>63.0</ele>
        <time>2011-05-06T08:08:20.000Z</time>
      </trkpt>
      <trkpt lon="34.97098999097943" lat="32.143089920282364">
        <ele>63.0</ele>
        <time>2011-05-06T08:08:33.000Z</time>
      </trkpt>
      <trkpt lon="34.97087993659079" lat="32.14326996356249">
        <ele>62.79999923706055</ele>
        <time>2011-05-06T08:08:44.000Z</time>
      </trkpt>
      <trkpt lon="34.97078999876976" lat="32.14329997077584">
        <ele>63.400001525878906</ele>
        <time>2011-05-06T08:08:55.000Z</time>
      </trkpt>
      <trkpt lon="34.97076996602118" lat="32.14330994524062">
        <ele>63.400001525878906</ele>
        <time>2011-05-06T08:09:00.000Z</time>
      </trkpt>
      <trkpt lon="34.97055999934673" lat="32.143539944663644">
        <ele>63.20000076293945</ele>
        <time>2011-05-06T08:09:14.000Z</time>
      </trkpt>
      <trkpt lon="34.97056997381151" lat="32.143819984048605">
        <ele>62.0</ele>
        <time>2011-05-06T08:09:23.000Z</time>
      </trkpt>
      <trkpt lon="34.97038993053138" lat="32.144059957936406">
        <ele>62.400001525878906</ele>
        <time>2011-05-06T08:09:33.000Z</time>
      </trkpt>
      <trkpt lon="34.970349948853254" lat="32.14426992461085">
        <ele>61.79999923706055</ele>
        <time>2011-05-06T08:09:39.000Z</time>
      </trkpt>
      <trkpt lon="34.970269985497" lat="32.14434997178614">
        <ele>62.20000076293945</ele>
        <time>2011-05-06T08:09:43.000Z</time>
      </trkpt>
      <trkpt lon="34.970029927790165" lat="32.14434997178614">
        <ele>64.19999694824219</ele>
        <time>2011-05-06T08:09:51.000Z</time>
      </trkpt>
      <trkpt lon="34.97001995332539" lat="32.14428995735943">
        <ele>64.4000015258789</ele>
        <time>2011-05-06T08:09:56.000Z</time>
      </trkpt>
      <trkpt lon="34.97010997496545" lat="32.14428995735943">
        <ele>63.79999923706055</ele>
        <time>2011-05-06T08:10:01.000Z</time>
      </trkpt>
      <trkpt lon="34.970069993287325" lat="32.14433999732137">
        <ele>63.79999923706055</ele>
        <time>2011-05-06T08:10:07.000Z</time>
      </trkpt>
      <trkpt lon="34.9698899500072" lat="32.144359946250916">
        <ele>63.79999923706055</ele>
        <time>2011-05-06T08:10:17.000Z</time>
      </trkpt>
      <trkpt lon="34.969769921153784" lat="32.14457997120917">
        <ele>62.599998474121094</ele>
        <time>2011-05-06T08:10:27.000Z</time>
      </trkpt>
      <trkpt lon="34.969769921153784" lat="32.14464996010065">
        <ele>62.599998474121094</ele>
        <time>2011-05-06T08:10:30.000Z</time>
      </trkpt>
      <trkpt lon="34.9698399938643" lat="32.14472992345691">
        <ele>62.79999923706055</ele>
        <time>2011-05-06T08:10:34.000Z</time>
      </trkpt>
      <trkpt lon="34.96984996832907" lat="32.14483997784555">
        <ele>62.599998474121094</ele>
        <time>2011-05-06T08:10:38.000Z</time>
      </trkpt>
      <trkpt lon="34.969769921153784" lat="32.14516997337341">
        <ele>61.400001525878906</ele>
        <time>2011-05-06T08:10:48.000Z</time>
      </trkpt>
      <trkpt lon="34.96975994668901" lat="32.145259995013475">
        <ele>61.20000076293945</ele>
        <time>2011-05-06T08:10:50.000Z</time>
      </trkpt>
      <trkpt lon="34.96975994668901" lat="32.14549996890128">
        <ele>60.599998474121094</ele>
        <time>2011-05-06T08:10:55.000Z</time>
      </trkpt>
      <trkpt lon="34.96962994337082" lat="32.14584999717772">
        <ele>59.79999923706055</ele>
        <time>2011-05-06T08:11:05.000Z</time>
      </trkpt>
      <trkpt lon="34.96960999444127" lat="32.14599994942546">
        <ele>58.20000076293945</ele>
        <time>2011-05-06T08:11:09.000Z</time>
      </trkpt>
      <trkpt lon="34.9696499761194" lat="32.14607999660075">
        <ele>57.400001525878906</ele>
        <time>2011-05-06T08:11:11.000Z</time>
      </trkpt>
      <trkpt lon="34.96967998333275" lat="32.14616993442178">
        <ele>56.400001525878906</ele>
        <time>2011-05-06T08:11:13.000Z</time>
      </trkpt>
      <trkpt lon="34.969729939475656" lat="32.146309996023774">
        <ele>55.0</ele>
        <time>2011-05-06T08:11:16.000Z</time>
      </trkpt>
      <trkpt lon="34.969729939475656" lat="32.14640999212861">
        <ele>53.79999923706055</ele>
        <time>2011-05-06T08:11:19.000Z</time>
      </trkpt>
      <trkpt lon="34.96992993168533" lat="32.1465399954468">
        <ele>52.400001525878906</ele>
        <time>2011-05-06T08:11:26.000Z</time>
      </trkpt>
      <trkpt lon="34.970129923895" lat="32.146679973229766">
        <ele>50.20000076293945</ele>
        <time>2011-05-06T08:11:30.000Z</time>
      </trkpt>
      <trkpt lon="34.970219945535064" lat="32.146979961544275">
        <ele>48.0</ele>
        <time>2011-05-06T08:11:38.000Z</time>
      </trkpt>
      <trkpt lon="34.97037995606661" lat="32.147389920428395">
        <ele>45.79999923706055</ele>
        <time>2011-05-06T08:11:48.000Z</time>
      </trkpt>
      <trkpt lon="34.97039998881519" lat="32.147539956495166">
        <ele>45.400001525878906</ele>
        <time>2011-05-06T08:11:51.000Z</time>
      </trkpt>
      <trkpt lon="34.97041993774474" lat="32.14765998534858">
        <ele>45.599998474121094</ele>
        <time>2011-05-06T08:11:54.000Z</time>
      </trkpt>
      <trkpt lon="34.970779940485954" lat="32.14789995923638">
        <ele>46.20000076293945</ele>
        <time>2011-05-06T08:12:07.000Z</time>
      </trkpt>
      <trkpt lon="34.9713699426502" lat="32.148159965872765">
        <ele>48.400001525878906</ele>
        <time>2011-05-06T08:12:24.000Z</time>
      </trkpt>
      <trkpt lon="34.97140992432833" lat="32.14819994755089">
        <ele>48.599998474121094</ele>
        <time>2011-05-06T08:12:26.000Z</time>
      </trkpt>
      <trkpt lon="34.97143993154168" lat="32.14829994365573">
        <ele>49.0</ele>
        <time>2011-05-06T08:12:31.000Z</time>
      </trkpt>
      <trkpt lon="34.97139994986355" lat="32.148399939760566">
        <ele>49.0</ele>
        <time>2011-05-06T08:12:35.000Z</time>
      </trkpt>
      <trkpt lon="34.971149917691946" lat="32.14875994250178">
        <ele>49.0</ele>
        <time>2011-05-06T08:12:50.000Z</time>
      </trkpt>
      <trkpt lon="34.97119995765388" lat="32.14905993081629">
        <ele>49.599998474121094</ele>
        <time>2011-05-06T08:13:02.000Z</time>
      </trkpt>
      <trkpt lon="34.97137991711497" lat="32.1494999807328">
        <ele>50.400001525878906</ele>
        <time>2011-05-06T08:13:17.000Z</time>
      </trkpt>
      <trkpt lon="34.97151997871697" lat="32.150199953466654">
        <ele>52.400001525878906</ele>
        <time>2011-05-06T08:13:38.000Z</time>
      </trkpt>
      <trkpt lon="34.97143993154168" lat="32.15076992288232">
        <ele>56.0</ele>
        <time>2011-05-06T08:13:57.000Z</time>
      </trkpt>
      <trkpt lon="34.97143993154168" lat="32.1507899556309">
        <ele>56.0</ele>
        <time>2011-05-06T08:13:58.000Z</time>
      </trkpt>
      <trkpt lon="34.97151997871697" lat="32.15082993730903">
        <ele>56.599998474121094</ele>
        <time>2011-05-06T08:14:02.000Z</time>
      </trkpt>
      <trkpt lon="34.972069999203086" lat="32.15092993341386">
        <ele>57.20000076293945</ele>
        <time>2011-05-06T08:14:19.000Z</time>
      </trkpt>
      <trkpt lon="34.97259998694062" lat="32.15108994394541">
        <ele>57.79999923706055</ele>
        <time>2011-05-06T08:14:35.000Z</time>
      </trkpt>
      <trkpt lon="34.972629994153976" lat="32.151129925623536">
        <ele>58.0</ele>
        <time>2011-05-06T08:14:37.000Z</time>
      </trkpt>
      <trkpt lon="34.97270995751023" lat="32.151129925623536">
        <ele>57.79999923706055</ele>
        <time>2011-05-06T08:14:43.000Z</time>
      </trkpt>
      <trkpt lon="34.97273996472359" lat="32.15109991841018">
        <ele>57.599998474121094</ele>
        <time>2011-05-06T08:14:45.000Z</time>
      </trkpt>
      <trkpt lon="34.97289997525513" lat="32.15113998390734">
        <ele>57.400001525878906</ele>
        <time>2011-05-06T08:14:58.000Z</time>
      </trkpt>
      <trkpt lon="34.972889916971326" lat="32.15113998390734">
        <ele>57.400001525878906</ele>
        <time>2011-05-06T08:14:59.000Z</time>
      </trkpt>
      <trkpt lon="34.972539972513914" lat="32.151059936732054">
        <ele>57.79999923706055</ele>
        <time>2011-05-06T08:15:22.000Z</time>
      </trkpt>
      <trkpt lon="34.97246998362243" lat="32.151059936732054">
        <ele>57.79999923706055</ele>
        <time>2011-05-06T08:15:37.000Z</time>
      </trkpt>
      <trkpt lon="34.972499990835786" lat="32.15104996226728">
        <ele>57.79999923706055</ele>
        <time>2011-05-06T08:15:51.000Z</time>
      </trkpt>
      <trkpt lon="34.972669975832105" lat="32.15106999501586">
        <ele>57.599998474121094</ele>
        <time>2011-05-06T08:16:07.000Z</time>
      </trkpt>
      <trkpt lon="34.97278992086649" lat="32.15110997669399">
        <ele>57.599998474121094</ele>
        <time>2011-05-06T08:16:21.000Z</time>
      </trkpt>
      <trkpt lon="34.97287994250655" lat="32.15113998390734">
        <ele>57.599998474121094</ele>
        <time>2011-05-06T08:16:39.000Z</time>
      </trkpt>
      <trkpt lon="34.972889916971326" lat="32.15115993283689">
        <ele>57.599998474121094</ele>
        <time>2011-05-06T08:16:56.000Z</time>
      </trkpt>
      <trkpt lon="34.972889916971326" lat="32.15115993283689">
        <ele>57.599998474121094</ele>
        <time>2011-05-06T08:17:01.000Z</time>
      </trkpt>
      <trkpt lon="34.972889916971326" lat="32.15115993283689">
        <ele>57.599998474121094</ele>
        <time>2011-05-06T08:17:03.000Z</time>
      </trkpt>
      <trkpt lon="34.972889916971326" lat="32.15115993283689">
        <ele>57.599998474121094</ele>
        <time>2011-05-06T08:17:14.000Z</time>
      </trkpt>
      <trkpt lon="34.972889916971326" lat="32.15115993283689">
        <ele>57.599998474121094</ele>
        <time>2011-05-06T08:17:22.000Z</time>
      </trkpt>
    </trkseg>
  </trk>
</gpx>
